PWSweather.com
Personal Weather Stations
Station Observations
OZIERI
Punta Idda, OzieriIT

Punta IddaOzieriIT

Lat: 40.584142, Lon: 9.007657999999992

Elevation: 1483

Station Type: Lacrosse ws2350

Latest ConditionsUpdated 11:11:05 PM GMT+01:01 Friday, Oct 18, 2019
Currently Today's Max Today's Min Today's Average
Temperature 56.8°F13.8°C 72.3°F22.4°C 53.4°F11.9°C 61.2°F16.2°C
Dew Point 51.1°F10.6°C 56.5°F13.6°C 42.6°F5.9°C 50.4°F10.2°C
Winds 4.0 mph SE6.4 kmh SE 6.0 mph -9.7 kmh - - 2.3 mph 3.7 kmh
Wind Gusts 6.0 mph9.7 kmh 9.6 mph15.4 kmh - -
Humidity 81% 84% 36% 70%
Pressure 30.06 in1017.9 mb 30.12 in1020.0 mb 30.04 in1017.3 mb -
Hour Temp Dew Point Humidity Winds Wind Gusts Pressure Precip Precip Rate Daily Precip Total
11:11 PM 56.8°F13.8°C 51.1°F10.6°C 81% 4.0 mph SE6.4 kmh SE 6.0 mph9.7 kmh 30.06 in1017.9 mb 0.00 in0.0 mm 0.00 in0.0 mm 0.00 in0.0 mm
11:08 PM 56.8°F13.8°C 51.1°F10.6°C 81% 3.8 mph SE6.1 kmh SE 4.7 mph7.6 kmh 30.06 in1017.9 mb 0.00 in0.0 mm 0.00 in0.0 mm 0.00 in0.0 mm
11:06 PM 56.8°F13.8°C 51.1°F10.6°C 81% 4.3 mph ESE6.9 kmh ESE 7.2 mph11.6 kmh 30.06 in1017.9 mb 0.00 in0.0 mm 0.00 in0.0 mm 0.00 in0.0 mm
11:04 PM 57.0°F13.9°C 51.3°F10.7°C 81% 2.9 mph SE4.7 kmh SE 4.7 mph7.6 kmh 30.06 in1017.9 mb 0.00 in0.0 mm 0.00 in0.0 mm 0.00 in0.0 mm
11:02 PM 57.4°F14.1°C 51.6°F10.9°C 81% 2.0 mph SE3.2 kmh SE 2.9 mph4.7 kmh 30.07 in1018.3 mb 0.00 in0.0 mm 0.00 in0.0 mm 0.00 in0.0 mm
10:59 PM 57.4°F14.1°C 51.6°F10.9°C 81% 1.8 mph E2.9 kmh E 2.2 mph3.5 kmh 30.07 in1018.3 mb 0.00 in0.0 mm 0.00 in0.0 mm 0.00 in0.0 mm
10:57 PM 57.4°F14.1°C 51.6°F10.9°C 81% 2.0 mph SSE3.2 kmh SSE 2.2 mph3.5 kmh 30.06 in1017.9 mb 0.00 in0.0 mm 0.00 in0.0 mm 0.00 in0.0 mm
10:55 PM 57.4°F14.1°C 51.6°F10.9°C 81% 2.5 mph SE4.0 kmh SE 2.9 mph4.7 kmh 30.07 in1018.3 mb 0.00 in0.0 mm 0.00 in0.0 mm 0.00 in0.0 mm
10:53 PM 57.6°F14.2°C 51.8°F11.0°C 81% 2.5 mph SE4.0 kmh SE 2.9 mph4.7 kmh 30.06 in1017.9 mb 0.00 in0.0 mm 0.00 in0.0 mm 0.00 in0.0 mm
10:50 PM 57.4°F14.1°C 51.6°F10.9°C 81% 2.5 mph ESE4.0 kmh ESE 3.6 mph5.8 kmh 30.07 in1018.3 mb 0.00 in0.0 mm 0.00 in0.0 mm 0.00 in0.0 mm
10:48 PM 57.4°F14.1°C 51.6°F10.9°C 81% 2.2 mph SE3.5 kmh SE 3.4 mph5.5 kmh 30.06 in1017.9 mb 0.00 in0.0 mm 0.00 in0.0 mm 0.00 in0.0 mm
10:46 PM 57.4°F14.1°C 51.6°F10.9°C 81% 1.8 mph SSE2.9 kmh SSE 1.8 mph2.9 kmh 30.07 in1018.3 mb 0.00 in0.0 mm 0.00 in0.0 mm 0.00 in0.0 mm
10:44 PM 57.4°F14.1°C 51.6°F10.9°C 81% 2.9 mph SSE4.7 kmh SSE 2.9 mph4.7 kmh 30.07 in1018.3 mb 0.00 in0.0 mm 0.00 in0.0 mm 0.00 in0.0 mm
10:42 PM 57.4°F14.1°C 51.6°F10.9°C 81% 4.3 mph ESE6.9 kmh ESE 4.7 mph7.6 kmh 30.07 in1018.3 mb 0.00 in0.0 mm 0.00 in0.0 mm 0.00 in0.0 mm
10:39 PM 57.2°F14.0°C 51.1°F10.6°C 80% 4.3 mph SE6.9 kmh SE 4.7 mph7.6 kmh 30.06 in1017.9 mb 0.00 in0.0 mm 0.00 in0.0 mm 0.00 in0.0 mm
10:37 PM 57.4°F14.1°C 51.6°F10.9°C 81% 4.5 mph SE7.2 kmh SE 5.1 mph8.2 kmh 30.07 in1018.3 mb 0.00 in0.0 mm 0.00 in0.0 mm 0.00 in0.0 mm
10:35 PM 57.6°F14.2°C 51.8°F11.0°C 81% 5.1 mph ESE8.2 kmh ESE 5.6 mph9.0 kmh 30.07 in1018.3 mb 0.00 in0.0 mm 0.00 in0.0 mm 0.00 in0.0 mm
10:33 PM 57.7°F14.3°C 52.0°F11.1°C 81% 5.1 mph ESE8.2 kmh ESE 6.0 mph9.7 kmh 30.07 in1018.3 mb 0.00 in0.0 mm 0.00 in0.0 mm 0.00 in0.0 mm
10:31 PM 57.7°F14.3°C 51.6°F10.9°C 80% 5.1 mph SE8.2 kmh SE 6.5 mph10.5 kmh 30.07 in1018.3 mb 0.00 in0.0 mm 0.00 in0.0 mm 0.00 in0.0 mm
10:29 PM 57.9°F14.4°C 51.8°F11.0°C 80% 5.1 mph SE8.2 kmh SE 6.9 mph11.1 kmh 30.07 in1018.3 mb 0.00 in0.0 mm 0.00 in0.0 mm 0.00 in0.0 mm
10:27 PM 58.1°F14.5°C 52.0°F11.1°C 80% 4.5 mph ESE7.2 kmh ESE 5.1 mph8.2 kmh 30.07 in1018.3 mb 0.00 in0.0 mm 0.00 in0.0 mm 0.00 in0.0 mm
10:24 PM 58.3°F14.6°C 52.2°F11.2°C 80% 4.9 mph SE7.9 kmh SE 6.5 mph10.5 kmh 30.07 in1018.3 mb 0.00 in0.0 mm 0.00 in0.0 mm 0.00 in0.0 mm
10:22 PM 58.3°F14.6°C 52.5°F11.4°C 81% 4.3 mph SE6.9 kmh SE 5.1 mph8.2 kmh 30.07 in1018.3 mb 0.00 in0.0 mm 0.00 in0.0 mm 0.00 in0.0 mm
10:20 PM 58.3°F14.6°C 52.5°F11.4°C 81% 4.5 mph SE7.2 kmh SE 5.1 mph8.2 kmh 30.07 in1018.3 mb 0.00 in0.0 mm 0.00 in0.0 mm 0.00 in0.0 mm
10:18 PM 58.3°F14.6°C 52.5°F11.4°C 81% 4.5 mph ESE7.2 kmh ESE 5.4 mph8.7 kmh 30.07 in1018.3 mb 0.00 in0.0 mm 0.00 in0.0 mm 0.00 in0.0 mm
10:15 PM 58.3°F14.6°C 52.5°F11.4°C 81% 4.7 mph ESE7.6 kmh ESE 5.6 mph9.0 kmh 30.07 in1018.3 mb 0.00 in0.0 mm 0.00 in0.0 mm 0.00 in0.0 mm
10:13 PM 58.3°F14.6°C 52.2°F11.2°C 80% 4.7 mph ESE7.6 kmh ESE 5.4 mph8.7 kmh 30.07 in1018.3 mb 0.00 in0.0 mm 0.00 in0.0 mm 0.00 in0.0 mm
10:11 PM 58.3°F14.6°C 52.2°F11.2°C 80% 4.7 mph ESE7.6 kmh ESE 5.1 mph8.2 kmh 30.07 in1018.3 mb 0.00 in0.0 mm 0.00 in0.0 mm 0.00 in0.0 mm
10:09 PM 58.3°F14.6°C 52.2°F11.2°C 80% 4.7 mph SE7.6 kmh SE 5.8 mph9.3 kmh 30.07 in1018.3 mb 0.00 in0.0 mm 0.00 in0.0 mm 0.00 in0.0 mm
10:07 PM 58.5°F14.7°C 52.3°F11.3°C 80% 4.9 mph ESE7.9 kmh ESE 6.0 mph9.7 kmh 30.07 in1018.3 mb 0.00 in0.0 mm 0.00 in0.0 mm 0.00 in0.0 mm
10:05 PM 58.3°F14.6°C 52.2°F11.2°C 80% 4.5 mph SSE7.2 kmh SSE 6.3 mph10.1 kmh 30.07 in1018.3 mb 0.00 in0.0 mm 0.00 in0.0 mm 0.00 in0.0 mm
10:02 PM 58.3°F14.6°C 52.2°F11.2°C 80% 4.0 mph SE6.4 kmh SE 5.8 mph9.3 kmh 30.07 in1018.3 mb 0.00 in0.0 mm 0.00 in0.0 mm 0.00 in0.0 mm
10:00 PM 58.3°F14.6°C 52.2°F11.2°C 80% 3.6 mph SE5.8 kmh SE 5.1 mph8.2 kmh 30.07 in1018.3 mb 0.00 in0.0 mm 0.00 in0.0 mm 0.00 in0.0 mm
09:58 PM 58.3°F14.6°C 52.2°F11.2°C 80% 3.6 mph ESE5.8 kmh ESE 3.6 mph5.8 kmh 30.07 in1018.3 mb 0.00 in0.0 mm 0.00 in0.0 mm 0.00 in0.0 mm
09:56 PM 58.3°F14.6°C 52.2°F11.2°C 80% 3.8 mph SE6.1 kmh SE 5.1 mph8.2 kmh 30.07 in1018.3 mb 0.00 in0.0 mm 0.00 in0.0 mm 0.00 in0.0 mm
09:54 PM 58.3°F14.6°C 51.8°F11.0°C 79% 3.8 mph ESE6.1 kmh ESE 5.1 mph8.2 kmh 30.07 in1018.3 mb 0.00 in0.0 mm 0.00 in0.0 mm 0.00 in0.0 mm
09:51 PM 58.5°F14.7°C 52.0°F11.1°C 79% 4.0 mph SE6.4 kmh SE 5.6 mph9.0 kmh 30.07 in1018.3 mb 0.00 in0.0 mm 0.00 in0.0 mm 0.00 in0.0 mm
09:49 PM 58.5°F14.7°C 52.0°F11.1°C 79% 3.6 mph ESE5.8 kmh ESE 5.4 mph8.7 kmh 30.07 in1018.3 mb 0.00 in0.0 mm 0.00 in0.0 mm 0.00 in0.0 mm
09:47 PM 58.6°F14.8°C 52.2°F11.2°C 79% 3.1 mph E5.0 kmh E 4.0 mph6.4 kmh 30.07 in1018.3 mb 0.00 in0.0 mm 0.00 in0.0 mm 0.00 in0.0 mm
09:45 PM 58.6°F14.8°C 52.2°F11.2°C 79% 3.6 mph ESE5.8 kmh ESE 4.3 mph6.9 kmh 30.07 in1018.3 mb 0.00 in0.0 mm 0.00 in0.0 mm 0.00 in0.0 mm
09:43 PM 58.6°F14.8°C 52.2°F11.2°C 79% 3.4 mph ESE5.5 kmh ESE 4.3 mph6.9 kmh 30.07 in1018.3 mb 0.00 in0.0 mm 0.00 in0.0 mm 0.00 in0.0 mm
09:40 PM 58.8°F14.9°C 52.3°F11.3°C 79% 3.6 mph SE5.8 kmh SE 6.0 mph9.7 kmh 30.07 in1018.3 mb 0.00 in0.0 mm 0.00 in0.0 mm 0.00 in0.0 mm
09:38 PM 58.8°F14.9°C 52.3°F11.3°C 79% 3.1 mph SE5.0 kmh SE 4.3 mph6.9 kmh 30.07 in1018.3 mb 0.00 in0.0 mm 0.00 in0.0 mm 0.00 in0.0 mm
09:36 PM 58.8°F14.9°C 52.3°F11.3°C 79% 2.9 mph SE4.7 kmh SE 4.5 mph7.2 kmh 30.07 in1018.3 mb 0.00 in0.0 mm 0.00 in0.0 mm 0.00 in0.0 mm
09:34 PM 58.8°F14.9°C 52.3°F11.3°C 79% 2.5 mph SSE4.0 kmh SSE 3.1 mph5.0 kmh 30.07 in1018.3 mb 0.00 in0.0 mm 0.00 in0.0 mm 0.00 in0.0 mm
09:31 PM 58.8°F14.9°C 52.3°F11.3°C 79% 2.5 mph ESE4.0 kmh ESE 3.4 mph5.5 kmh 30.07 in1018.3 mb 0.00 in0.0 mm 0.00 in0.0 mm 0.00 in0.0 mm
09:29 PM 58.8°F14.9°C 52.3°F11.3°C 79% 2.2 mph SE3.5 kmh SE 2.9 mph4.7 kmh 30.07 in1018.3 mb 0.00 in0.0 mm 0.00 in0.0 mm 0.00 in0.0 mm
09:27 PM 58.8°F14.9°C 52.3°F11.3°C 79% 2.5 mph ESE4.0 kmh ESE 3.6 mph5.8 kmh 30.07 in1018.3 mb 0.00 in0.0 mm 0.00 in0.0 mm 0.00 in0.0 mm
09:25 PM 58.8°F14.9°C 52.3°F11.3°C 79% 2.2 mph ESE3.5 kmh ESE 3.4 mph5.5 kmh 30.07 in1018.3 mb 0.00 in0.0 mm 0.00 in0.0 mm 0.00 in0.0 mm
09:23 PM 58.8°F14.9°C 52.0°F11.1°C 78% 2.2 mph SE3.5 kmh SE 2.9 mph4.7 kmh 30.07 in1018.3 mb 0.00 in0.0 mm 0.00 in0.0 mm 0.00 in0.0 mm
09:20 PM 59.0°F15.0°C 52.2°F11.2°C 78% 2.5 mph SE4.0 kmh SE 3.8 mph6.1 kmh 30.07 in1018.3 mb 0.00 in0.0 mm 0.00 in0.0 mm 0.00 in0.0 mm
09:18 PM 59.0°F15.0°C 52.2°F11.2°C 78% 2.0 mph ESE3.2 kmh ESE 2.5 mph4.0 kmh 30.07 in1018.3 mb 0.00 in0.0 mm 0.00 in0.0 mm 0.00 in0.0 mm
09:16 PM 59.0°F15.0°C 52.2°F11.2°C 78% 2.2 mph ESE3.5 kmh ESE 3.6 mph5.8 kmh 30.07 in1018.3 mb 0.00 in0.0 mm 0.00 in0.0 mm 0.00 in0.0 mm
09:14 PM 58.8°F14.9°C 52.0°F11.1°C 78% 2.2 mph SSE3.5 kmh SSE 4.0 mph6.4 kmh 30.07 in1018.3 mb 0.00 in0.0 mm 0.00 in0.0 mm 0.00 in0.0 mm
09:12 PM 59.0°F15.0°C 52.2°F11.2°C 78% 2.2 mph SSE3.5 kmh SSE 2.7 mph4.3 kmh 30.08 in1018.6 mb 0.00 in0.0 mm 0.00 in0.0 mm 0.00 in0.0 mm
09:09 PM 59.2°F15.1°C 52.3°F11.3°C 78% 2.2 mph SE3.5 kmh SE 4.3 mph6.9 kmh 30.07 in1018.3 mb 0.00 in0.0 mm 0.00 in0.0 mm 0.00 in0.0 mm
09:07 PM 59.2°F15.1°C 52.3°F11.3°C 78% 2.0 mph SE3.2 kmh SE 3.1 mph5.0 kmh 30.07 in1018.3 mb 0.00 in0.0 mm 0.00 in0.0 mm 0.00 in0.0 mm
09:05 PM 59.2°F15.1°C 52.3°F11.3°C 78% 2.2 mph SE3.5 kmh SE 3.4 mph5.5 kmh 30.07 in1018.3 mb 0.00 in0.0 mm 0.00 in0.0 mm 0.00 in0.0 mm
09:03 PM 59.4°F15.2°C 52.5°F11.4°C 78% 2.0 mph ESE3.2 kmh ESE 2.5 mph4.0 kmh 30.07 in1018.3 mb 0.00 in0.0 mm 0.00 in0.0 mm 0.00 in0.0 mm
09:01 PM 59.4°F15.2°C 52.5°F11.4°C 78% 2.5 mph SE4.0 kmh SE 3.8 mph6.1 kmh 30.07 in1018.3 mb 0.00 in0.0 mm 0.00 in0.0 mm 0.00 in0.0 mm
08:58 PM 59.4°F15.2°C 52.5°F11.4°C 78% 3.4 mph ESE5.5 kmh ESE 4.3 mph6.9 kmh 30.07 in1018.3 mb 0.00 in0.0 mm 0.00 in0.0 mm 0.00 in0.0 mm
08:56 PM 59.5°F15.3°C 52.7°F11.5°C 78% 3.8 mph SE6.1 kmh SE 4.5 mph7.2 kmh 30.07 in1018.3 mb 0.00 in0.0 mm 0.00 in0.0 mm 0.00 in0.0 mm
08:54 PM 59.4°F15.2°C 52.5°F11.4°C 78% 3.6 mph SE5.8 kmh SE 4.7 mph7.6 kmh 30.07 in1018.3 mb 0.00 in0.0 mm 0.00 in0.0 mm 0.00 in0.0 mm
08:52 PM 59.5°F15.3°C 52.3°F11.3°C 77% 3.1 mph ESE5.0 kmh ESE 4.9 mph7.9 kmh 30.08 in1018.6 mb 0.00 in0.0 mm 0.00 in0.0 mm 0.00 in0.0 mm
08:49 PM 59.5°F15.3°C 52.3°F11.3°C 77% 3.4 mph SE5.5 kmh SE 4.7 mph7.6 kmh 30.08 in1018.6 mb 0.00 in0.0 mm 0.00 in0.0 mm 0.00 in0.0 mm
08:47 PM 59.5°F15.3°C 52.3°F11.3°C 77% 2.9 mph ESE4.7 kmh ESE 4.5 mph7.2 kmh 30.08 in1018.6 mb 0.00 in0.0 mm 0.00 in0.0 mm 0.00 in0.0 mm
08:45 PM 59.5°F15.3°C 52.3°F11.3°C 77% 2.5 mph ESE4.0 kmh ESE 3.1 mph5.0 kmh 30.08 in1018.6 mb 0.00 in0.0 mm 0.00 in0.0 mm 0.00 in0.0 mm
08:43 PM 59.5°F15.3°C 52.0°F11.1°C 76% 2.5 mph SE4.0 kmh SE 3.6 mph5.8 kmh 30.08 in1018.6 mb 0.00 in0.0 mm 0.00 in0.0 mm 0.00 in0.0 mm
08:40 PM 59.5°F15.3°C 52.0°F11.1°C 76% 2.7 mph SE4.3 kmh SE 3.8 mph6.1 kmh 30.08 in1018.6 mb 0.00 in0.0 mm 0.00 in0.0 mm 0.00 in0.0 mm
08:38 PM 59.5°F15.3°C 52.0°F11.1°C 76% 2.5 mph ESE4.0 kmh ESE 3.8 mph6.1 kmh 30.08 in1018.6 mb 0.00 in0.0 mm 0.00 in0.0 mm 0.00 in0.0 mm
08:36 PM 59.7°F15.4°C 52.2°F11.2°C 76% 2.2 mph ESE3.5 kmh ESE 3.8 mph6.1 kmh 30.08 in1018.6 mb 0.00 in0.0 mm 0.00 in0.0 mm 0.00 in0.0 mm
08:34 PM 59.7°F15.4°C 52.2°F11.2°C 76% 1.6 mph SE2.6 kmh SE 2.5 mph4.0 kmh 30.08 in1018.6 mb 0.00 in0.0 mm 0.00 in0.0 mm 0.00 in0.0 mm
08:32 PM 59.7°F15.4°C 51.8°F11.0°C 75% 0.9 mph ESE1.4 kmh ESE 1.6 mph2.6 kmh 30.07 in1018.3 mb 0.00 in0.0 mm 0.00 in0.0 mm 0.00 in0.0 mm
08:29 PM 59.9°F15.5°C 52.3°F11.3°C 76% 1.3 mph S2.1 kmh S 2.0 mph3.2 kmh 30.07 in1018.3 mb 0.00 in0.0 mm 0.00 in0.0 mm 0.00 in0.0 mm
08:27 PM 59.9°F15.5°C 52.3°F11.3°C 76% 1.6 mph SE2.6 kmh SE 2.2 mph3.5 kmh 30.07 in1018.3 mb 0.00 in0.0 mm 0.00 in0.0 mm 0.00 in0.0 mm
08:25 PM 60.1°F15.6°C 52.5°F11.4°C 76% 1.6 mph S2.6 kmh S 2.5 mph4.0 kmh 30.07 in1018.3 mb 0.00 in0.0 mm 0.00 in0.0 mm 0.00 in0.0 mm
08:23 PM 60.1°F15.6°C 52.5°F11.4°C 76% 1.6 mph SSE2.6 kmh SSE 1.8 mph2.9 kmh 30.07 in1018.3 mb 0.00 in0.0 mm 0.00 in0.0 mm 0.00 in0.0 mm
08:21 PM 60.1°F15.6°C 52.2°F11.2°C 75% 2.0 mph SSE3.2 kmh SSE 3.8 mph6.1 kmh 30.07 in1018.3 mb 0.00 in0.0 mm 0.00 in0.0 mm 0.00 in0.0 mm
08:19 PM 60.1°F15.6°C 52.2°F11.2°C 75% 1.6 mph SSE2.6 kmh SSE 2.9 mph4.7 kmh 30.07 in1018.3 mb 0.00 in0.0 mm 0.00 in0.0 mm 0.00 in0.0 mm
08:16 PM 60.1°F15.6°C 52.2°F11.2°C 75% 1.8 mph SE2.9 kmh SE 2.5 mph4.0 kmh 30.07 in1018.3 mb 0.00 in0.0 mm 0.00 in0.0 mm 0.00 in0.0 mm
08:14 PM 60.1°F15.6°C 52.2°F11.2°C 75% 2.0 mph SSE3.2 kmh SSE 2.5 mph4.0 kmh 30.07 in1018.3 mb 0.00 in0.0 mm 0.00 in0.0 mm 0.00 in0.0 mm
08:12 PM 60.4°F15.8°C 52.5°F11.4°C 75% 1.8 mph SSE2.9 kmh SSE 2.9 mph4.7 kmh 30.07 in1018.3 mb 0.00 in0.0 mm 0.00 in0.0 mm 0.00 in0.0 mm
08:10 PM 60.4°F15.8°C 52.2°F11.2°C 74% 1.8 mph S2.9 kmh S 2.5 mph4.0 kmh 30.07 in1018.3 mb 0.00 in0.0 mm 0.00 in0.0 mm 0.00 in0.0 mm
08:07 PM 60.4°F15.8°C 52.2°F11.2°C 74% 1.1 mph SSE1.8 kmh SSE 2.0 mph3.2 kmh 30.07 in1018.3 mb 0.00 in0.0 mm 0.00 in0.0 mm 0.00 in0.0 mm
08:05 PM 60.4°F15.8°C 52.2°F11.2°C 74% 0.9 mph SSE1.4 kmh SSE 1.3 mph2.1 kmh 30.07 in1018.3 mb 0.00 in0.0 mm 0.00 in0.0 mm 0.00 in0.0 mm
08:03 PM 60.6°F15.9°C 52.3°F11.3°C 74% 0.7 mph SSE1.1 kmh SSE 1.3 mph2.1 kmh 30.07 in1018.3 mb 0.00 in0.0 mm 0.00 in0.0 mm 0.00 in0.0 mm
08:01 PM 60.6°F15.9°C 52.3°F11.3°C 74% 0.9 mph SSE1.4 kmh SSE 1.6 mph2.6 kmh 30.07 in1018.3 mb 0.00 in0.0 mm 0.00 in0.0 mm 0.00 in0.0 mm
07:58 PM 60.6°F15.9°C 52.3°F11.3°C 74% 0.9 mph SSE1.4 kmh SSE 1.3 mph2.1 kmh 30.07 in1018.3 mb 0.00 in0.0 mm 0.00 in0.0 mm 0.00 in0.0 mm
07:56 PM 60.6°F15.9°C 52.0°F11.1°C 73% 0.9 mph SSE1.4 kmh SSE 1.6 mph2.6 kmh 30.07 in1018.3 mb 0.00 in0.0 mm 0.00 in0.0 mm 0.00 in0.0 mm
07:54 PM 60.6°F15.9°C 52.0°F11.1°C 73% 0.9 mph SSE1.4 kmh SSE 1.3 mph2.1 kmh 30.07 in1018.3 mb 0.00 in0.0 mm 0.00 in0.0 mm 0.00 in0.0 mm
07:52 PM 60.6°F15.9°C 52.0°F11.1°C 73% 1.1 mph SSE1.8 kmh SSE 1.8 mph2.9 kmh 30.07 in1018.3 mb 0.00 in0.0 mm 0.00 in0.0 mm 0.00 in0.0 mm
07:50 PM 60.8°F16.0°C 52.2°F11.2°C 73% 0.9 mph SSE1.4 kmh SSE 1.6 mph2.6 kmh 30.07 in1018.3 mb 0.00 in0.0 mm 0.00 in0.0 mm 0.00 in0.0 mm
07:48 PM 61.0°F16.1°C 52.3°F11.3°C 73% 0.7 mph S1.1 kmh S 1.1 mph1.8 kmh 30.07 in1018.3 mb 0.00 in0.0 mm 0.00 in0.0 mm 0.00 in0.0 mm
07:46 PM 61.0°F16.1°C 52.3°F11.3°C 73% 0.9 mph SSE1.4 kmh SSE 1.3 mph2.1 kmh 30.07 in1018.3 mb 0.00 in0.0 mm 0.00 in0.0 mm 0.00 in0.0 mm
07:44 PM 61.0°F16.1°C 52.3°F11.3°C 73% 0.4 mph SSE0.6 kmh SSE 0.7 mph1.1 kmh 30.07 in1018.3 mb 0.00 in0.0 mm 0.00 in0.0 mm 0.00 in0.0 mm
07:41 PM 61.0°F16.1°C 52.3°F11.3°C 73% 0.9 mph SSE1.4 kmh SSE 1.3 mph2.1 kmh 30.07 in1018.3 mb 0.00 in0.0 mm 0.00 in0.0 mm 0.00 in0.0 mm
07:39 PM 61.0°F16.1°C 52.3°F11.3°C 73% 1.1 mph SSE1.8 kmh SSE 1.3 mph2.1 kmh 30.07 in1018.3 mb 0.00 in0.0 mm 0.00 in0.0 mm 0.00 in0.0 mm
07:37 PM 61.0°F16.1°C 52.3°F11.3°C 73% 0.7 mph SSE1.1 kmh SSE 1.3 mph2.1 kmh 30.07 in1018.3 mb 0.00 in0.0 mm 0.00 in0.0 mm 0.00 in0.0 mm
07:35 PM 61.0°F16.1°C 52.0°F11.1°C 72% 0.7 mph SSE1.1 kmh SSE 1.6 mph2.6 kmh 30.07 in1018.3 mb 0.00 in0.0 mm 0.00 in0.0 mm 0.00 in0.0 mm
07:33 PM 61.0°F16.1°C 52.0°F11.1°C 72% 0.2 mph SSE0.3 kmh SSE 0.9 mph1.4 kmh 30.07 in1018.3 mb 0.00 in0.0 mm 0.00 in0.0 mm 0.00 in0.0 mm
07:30 PM 61.0°F16.1°C 52.0°F11.1°C 72% 0.2 mph SSE0.3 kmh SSE -- 30.07 in1018.3 mb 0.00 in0.0 mm 0.00 in0.0 mm 0.00 in0.0 mm
07:28 PM 61.2°F16.2°C 52.0°F11.1°C 72% 0.2 mph SE0.3 kmh SE -- 30.07 in1018.3 mb 0.00 in0.0 mm 0.00 in0.0 mm 0.00 in0.0 mm
07:26 PM 61.2°F16.2°C 52.0°F11.1°C 72% 0.2 mph SE0.3 kmh SE -- 30.07 in1018.3 mb 0.00 in0.0 mm 0.00 in0.0 mm 0.00 in0.0 mm
07:24 PM 61.2°F16.2°C 52.0°F11.1°C 72% 0.4 mph SE0.6 kmh SE 0.9 mph1.4 kmh 30.07 in1018.3 mb 0.00 in0.0 mm 0.00 in0.0 mm 0.00 in0.0 mm
07:21 PM 61.3°F16.3°C 51.8°F11.0°C 71% 0.4 mph SE0.6 kmh SE 1.1 mph1.8 kmh 30.07 in1018.3 mb 0.00 in0.0 mm 0.00 in0.0 mm 0.00 in0.0 mm
07:19 PM 61.3°F16.3°C 51.8°F11.0°C 71% 0.4 mph SSE0.6 kmh SSE -- 30.06 in1017.9 mb 0.00 in0.0 mm 0.00 in0.0 mm 0.00 in0.0 mm
07:17 PM 61.3°F16.3°C 51.8°F11.0°C 71% 0.7 mph SSE1.1 kmh SSE 1.1 mph1.8 kmh 30.07 in1018.3 mb 0.00 in0.0 mm 0.00 in0.0 mm 0.00 in0.0 mm
07:15 PM 61.3°F16.3°C 51.8°F11.0°C 71% 0.7 mph SSE1.1 kmh SSE 0.9 mph1.4 kmh 30.07 in1018.3 mb 0.00 in0.0 mm 0.00 in0.0 mm 0.00 in0.0 mm
07:13 PM 61.3°F16.3°C 51.8°F11.0°C 71% 1.3 mph SSE2.1 kmh SSE 1.6 mph2.6 kmh 30.07 in1018.3 mb 0.00 in0.0 mm 0.00 in0.0 mm 0.00 in0.0 mm
07:11 PM 61.3°F16.3°C 51.8°F11.0°C 71% 1.3 mph SSE2.1 kmh SSE 1.6 mph2.6 kmh 30.07 in1018.3 mb 0.00 in0.0 mm 0.00 in0.0 mm 0.00 in0.0 mm
07:08 PM 61.5°F16.4°C 52.0°F11.1°C 71% 1.6 mph SSE2.6 kmh SSE 2.2 mph3.5 kmh 30.06 in1017.9 mb 0.00 in0.0 mm 0.00 in0.0 mm 0.00 in0.0 mm
07:06 PM 61.5°F16.4°C 52.0°F11.1°C 71% 1.6 mph SSE2.6 kmh SSE 2.9 mph4.7 kmh 30.07 in1018.3 mb 0.00 in0.0 mm 0.00 in0.0 mm 0.00 in0.0 mm
07:04 PM 61.7°F16.5°C 52.2°F11.2°C 71% 1.6 mph SSE2.6 kmh SSE 2.2 mph3.5 kmh 30.07 in1018.3 mb 0.00 in0.0 mm 0.00 in0.0 mm 0.00 in0.0 mm
07:02 PM 61.9°F16.6°C 52.0°F11.1°C 70% 1.8 mph SE2.9 kmh SE 2.9 mph4.7 kmh 30.07 in1018.3 mb 0.00 in0.0 mm 0.00 in0.0 mm 0.00 in0.0 mm
07:00 PM 62.2°F16.8°C 52.3°F11.3°C 70% 1.6 mph SSE2.6 kmh SSE 2.7 mph4.3 kmh 30.06 in1017.9 mb 0.00 in0.0 mm 0.00 in0.0 mm 0.00 in0.0 mm
06:57 PM 62.2°F16.8°C 52.3°F11.3°C 70% 1.6 mph SSE2.6 kmh SSE 2.9 mph4.7 kmh 30.07 in1018.3 mb 0.00 in0.0 mm 0.00 in0.0 mm 0.00 in0.0 mm
06:55 PM 62.4°F16.9°C 52.5°F11.4°C 70% 0.9 mph ESE1.4 kmh ESE 1.3 mph2.1 kmh 30.07 in1018.3 mb 0.00 in0.0 mm 0.00 in0.0 mm 0.00 in0.0 mm
06:53 PM 62.4°F16.9°C 52.5°F11.4°C 70% 1.1 mph SE1.8 kmh SE 1.1 mph1.8 kmh 30.07 in1018.3 mb 0.00 in0.0 mm 0.00 in0.0 mm 0.00 in0.0 mm
06:51 PM 62.6°F17.0°C 52.7°F11.5°C 70% 1.3 mph SE2.1 kmh SE 2.5 mph4.0 kmh 30.07 in1018.3 mb 0.00 in0.0 mm 0.00 in0.0 mm 0.00 in0.0 mm
06:48 PM 62.8°F17.1°C 52.9°F11.6°C 70% 1.1 mph SE1.8 kmh SE 2.2 mph3.5 kmh 30.07 in1018.3 mb 0.00 in0.0 mm 0.00 in0.0 mm 0.00 in0.0 mm
06:46 PM 63.0°F17.2°C 52.7°F11.5°C 69% 0.9 mph ESE1.4 kmh ESE 1.6 mph2.6 kmh 30.07 in1018.3 mb 0.00 in0.0 mm 0.00 in0.0 mm 0.00 in0.0 mm
06:44 PM 63.1°F17.3°C 52.9°F11.6°C 69% 0.7 mph ESE1.1 kmh ESE 2.0 mph3.2 kmh 30.07 in1018.3 mb 0.00 in0.0 mm 0.00 in0.0 mm 0.00 in0.0 mm
06:42 PM 63.1°F17.3°C 52.9°F11.6°C 69% 0.2 mph S0.3 kmh S -- 30.07 in1018.3 mb 0.00 in0.0 mm 0.00 in0.0 mm 0.00 in0.0 mm
06:40 PM 63.3°F17.4°C 53.1°F11.7°C 69% 0.2 mph SSW0.3 kmh SSW -- 30.07 in1018.3 mb 0.00 in0.0 mm 0.00 in0.0 mm 0.00 in0.0 mm
06:38 PM 63.3°F17.4°C 53.1°F11.7°C 69% 0.2 mph S0.3 kmh S -- 30.07 in1018.3 mb 0.00 in0.0 mm 0.00 in0.0 mm 0.00 in0.0 mm
06:36 PM 63.3°F17.4°C 53.1°F11.7°C 69% 0.2 mph S0.3 kmh S -- 30.06 in1017.9 mb 0.00 in0.0 mm 0.00 in0.0 mm 0.00 in0.0 mm
06:33 PM 63.5°F17.5°C 53.1°F11.7°C 69% 0.2 mph S0.3 kmh S -- 30.06 in1017.9 mb 0.00 in0.0 mm 0.00 in0.0 mm 0.00 in0.0 mm
06:31 PM 63.7°F17.6°C 53.2°F11.8°C 69% 0.2 mph S0.3 kmh S 0.7 mph1.1 kmh 30.06 in1017.9 mb 0.00 in0.0 mm 0.00 in0.0 mm 0.00 in0.0 mm
06:29 PM 63.7°F17.6°C 53.2°F11.8°C 69% 0.2 mph SSE0.3 kmh SSE -- 30.06 in1017.9 mb 0.00 in0.0 mm 0.00 in0.0 mm 0.00 in0.0 mm
06:27 PM 64.0°F17.8°C 53.6°F12.0°C 69% 0.2 mph SSE0.3 kmh SSE -- 30.06 in1017.9 mb 0.00 in0.0 mm 0.00 in0.0 mm 0.00 in0.0 mm
06:25 PM 64.0°F17.8°C 53.6°F12.0°C 69% 0.2 mph S0.3 kmh S -- 30.06 in1017.9 mb 0.00 in0.0 mm 0.00 in0.0 mm 0.00 in0.0 mm
06:23 PM 64.0°F17.8°C 53.6°F12.0°C 69% 0.2 mph NW0.3 kmh NW -- 30.06 in1017.9 mb 0.00 in0.0 mm 0.00 in0.0 mm 0.00 in0.0 mm
06:20 PM 64.0°F17.8°C 53.6°F12.0°C 69% 0.2 mph NNW0.3 kmh NNW -- 30.06 in1017.9 mb 0.00 in0.0 mm 0.00 in0.0 mm 0.00 in0.0 mm
06:18 PM 64.0°F17.8°C 53.6°F12.0°C 69% 0.2 mph WSW0.3 kmh WSW 0.9 mph1.4 kmh 30.06 in1017.9 mb 0.00 in0.0 mm 0.00 in0.0 mm 0.00 in0.0 mm
06:16 PM 64.0°F17.8°C 53.6°F12.0°C 69% 0.2 mph W0.3 kmh W -- 30.06 in1017.9 mb 0.00 in0.0 mm 0.00 in0.0 mm 0.00 in0.0 mm
06:14 PM 64.0°F17.8°C 53.6°F12.0°C 69% 0.2 mph W0.3 kmh W -- 30.06 in1017.9 mb 0.00 in0.0 mm 0.00 in0.0 mm 0.00 in0.0 mm
06:11 PM 64.0°F17.8°C 53.6°F12.0°C 69% 0.2 mph NNW0.3 kmh NNW -- 30.06 in1017.9 mb 0.00 in0.0 mm 0.00 in0.0 mm 0.00 in0.0 mm
06:09 PM 64.2°F17.9°C 53.8°F12.1°C 69% 0.4 mph 0.6 kmh -- 30.06 in1017.9 mb 0.00 in0.0 mm 0.00 in0.0 mm 0.00 in0.0 mm
06:07 PM 64.2°F17.9°C 53.8°F12.1°C 69% 0.9 mph NNW1.4 kmh NNW 1.3 mph2.1 kmh 30.06 in1017.9 mb 0.00 in0.0 mm 0.00 in0.0 mm 0.00 in0.0 mm
06:05 PM 64.2°F17.9°C 53.8°F12.1°C 69% 1.1 mph NNW1.8 kmh NNW 1.3 mph2.1 kmh 30.06 in1017.9 mb 0.00 in0.0 mm 0.00 in0.0 mm 0.00 in0.0 mm
06:03 PM 64.4°F18.0°C 54.0°F12.2°C 69% 1.8 mph NNW2.9 kmh NNW 2.7 mph4.3 kmh 30.06 in1017.9 mb 0.00 in0.0 mm 0.00 in0.0 mm 0.00 in0.0 mm
06:00 PM 64.6°F18.1°C 53.8°F12.1°C 68% 2.0 mph NW3.2 kmh NW 5.1 mph8.2 kmh 30.06 in1017.9 mb 0.00 in0.0 mm 0.00 in0.0 mm 0.00 in0.0 mm
05:58 PM 64.6°F18.1°C 53.8°F12.1°C 68% 1.6 mph NW2.6 kmh NW 3.8 mph6.1 kmh 30.05 in1017.6 mb 0.00 in0.0 mm 0.00 in0.0 mm 0.00 in0.0 mm
05:56 PM 64.6°F18.1°C 53.8°F12.1°C 68% 2.0 mph 3.2 kmh 4.0 mph6.4 kmh 30.06 in1017.9 mb 0.00 in0.0 mm 0.00 in0.0 mm 0.00 in0.0 mm
05:54 PM 64.8°F18.2°C 53.6°F12.0°C 67% 1.3 mph NW2.1 kmh NW 2.0 mph3.2 kmh 30.06 in1017.9 mb 0.00 in0.0 mm 0.00 in0.0 mm 0.00 in0.0 mm
05:51 PM 64.9°F18.3°C 53.8°F12.1°C 67% 2.2 mph 3.5 kmh 3.4 mph5.5 kmh 30.06 in1017.9 mb 0.00 in0.0 mm 0.00 in0.0 mm 0.00 in0.0 mm
05:49 PM 64.9°F18.3°C 53.8°F12.1°C 67% 2.0 mph NNW3.2 kmh NNW 5.4 mph8.7 kmh 30.06 in1017.9 mb 0.00 in0.0 mm 0.00 in0.0 mm 0.00 in0.0 mm
05:47 PM 65.1°F18.4°C 53.4°F11.9°C 66% 1.6 mph 2.6 kmh 3.1 mph5.0 kmh 30.06 in1017.9 mb 0.00 in0.0 mm 0.00 in0.0 mm 0.00 in0.0 mm
05:45 PM 65.3°F18.5°C 53.6°F12.0°C 66% 1.8 mph NNW2.9 kmh NNW 3.6 mph5.8 kmh 30.06 in1017.9 mb 0.00 in0.0 mm 0.00 in0.0 mm 0.00 in0.0 mm
05:43 PM 65.5°F18.6°C 53.8°F12.1°C 66% 1.3 mph NNW2.1 kmh NNW 2.7 mph4.3 kmh 30.06 in1017.9 mb 0.00 in0.0 mm 0.00 in0.0 mm 0.00 in0.0 mm
05:40 PM 65.5°F18.6°C 53.8°F12.1°C 66% 0.9 mph W1.4 kmh W 2.5 mph4.0 kmh 30.06 in1017.9 mb 0.00 in0.0 mm 0.00 in0.0 mm 0.00 in0.0 mm
05:38 PM 65.7°F18.7°C 53.6°F12.0°C 65% 0.9 mph WNW1.4 kmh WNW 1.3 mph2.1 kmh 30.06 in1017.9 mb 0.00 in0.0 mm 0.00 in0.0 mm 0.00 in0.0 mm
05:36 PM 65.7°F18.7°C 53.6°F12.0°C 65% 1.1 mph W1.8 kmh W 2.5 mph4.0 kmh 30.06 in1017.9 mb 0.00 in0.0 mm 0.00 in0.0 mm 0.00 in0.0 mm
05:34 PM 65.8°F18.8°C 53.8°F12.1°C 65% 1.1 mph NW1.8 kmh NW 4.9 mph7.9 kmh 30.06 in1017.9 mb 0.00 in0.0 mm 0.00 in0.0 mm 0.00 in0.0 mm
05:32 PM 66.0°F18.9°C 53.4°F11.9°C 64% 1.1 mph NW1.8 kmh NW 3.6 mph5.8 kmh 30.06 in1017.9 mb 0.00 in0.0 mm 0.00 in0.0 mm 0.00 in0.0 mm
05:29 PM 66.0°F18.9°C 53.4°F11.9°C 64% 0.7 mph SW1.1 kmh SW 1.8 mph2.9 kmh 30.06 in1017.9 mb 0.00 in0.0 mm 0.00 in0.0 mm 0.00 in0.0 mm
05:27 PM 66.0°F18.9°C 53.1°F11.7°C 63% 1.1 mph 1.8 kmh 2.5 mph4.0 kmh 30.06 in1017.9 mb 0.00 in0.0 mm 0.00 in0.0 mm 0.00 in0.0 mm
05:25 PM 66.2°F19.0°C 53.2°F11.8°C 63% 1.1 mph W1.8 kmh W 3.1 mph5.0 kmh 30.06 in1017.9 mb 0.00 in0.0 mm 0.00 in0.0 mm 0.00 in0.0 mm
05:23 PM 66.4°F19.1°C 53.4°F11.9°C 63% 0.7 mph WNW1.1 kmh WNW 2.7 mph4.3 kmh 30.05 in1017.6 mb 0.00 in0.0 mm 0.00 in0.0 mm 0.00 in0.0 mm
05:20 PM 66.6°F19.2°C 53.1°F11.7°C 62% 0.9 mph WSW1.4 kmh WSW 1.8 mph2.9 kmh 30.05 in1017.6 mb 0.00 in0.0 mm 0.00 in0.0 mm 0.00 in0.0 mm
05:18 PM 66.7°F19.3°C 53.2°F11.8°C 62% 1.1 mph S1.8 kmh S 3.6 mph5.8 kmh 30.05 in1017.6 mb 0.00 in0.0 mm 0.00 in0.0 mm 0.00 in0.0 mm
05:16 PM 66.7°F19.3°C 53.2°F11.8°C 62% 1.1 mph NW1.8 kmh NW 2.0 mph3.2 kmh 30.05 in1017.6 mb 0.00 in0.0 mm 0.00 in0.0 mm 0.00 in0.0 mm
05:14 PM 66.9°F19.4°C 53.4°F11.9°C 62% 1.3 mph 2.1 kmh 2.5 mph4.0 kmh 30.05 in1017.6 mb 0.00 in0.0 mm 0.00 in0.0 mm 0.00 in0.0 mm
05:12 PM 66.9°F19.4°C 53.1°F11.7°C 61% 1.3 mph W2.1 kmh W 2.9 mph4.7 kmh 30.05 in1017.6 mb 0.00 in0.0 mm 0.00 in0.0 mm 0.00 in0.0 mm
05:10 PM 67.1°F19.5°C 53.2°F11.8°C 61% 1.1 mph NW1.8 kmh NW 1.3 mph2.1 kmh 30.05 in1017.6 mb 0.00 in0.0 mm 0.00 in0.0 mm 0.00 in0.0 mm
05:08 PM 67.3°F19.6°C 53.4°F11.9°C 61% 1.8 mph NW2.9 kmh NW 3.8 mph6.1 kmh 30.05 in1017.6 mb 0.00 in0.0 mm 0.00 in0.0 mm 0.00 in0.0 mm
05:05 PM 67.3°F19.6°C 53.4°F11.9°C 61% 1.8 mph W2.9 kmh W 4.3 mph6.9 kmh 30.05 in1017.6 mb 0.00 in0.0 mm 0.00 in0.0 mm 0.00 in0.0 mm
05:03 PM 67.6°F19.8°C 53.2°F11.8°C 60% 1.6 mph W2.6 kmh W 2.5 mph4.0 kmh 30.05 in1017.6 mb 0.00 in0.0 mm 0.00 in0.0 mm 0.00 in0.0 mm
05:01 PM 67.6°F19.8°C 53.2°F11.8°C 60% 2.0 mph WSW3.2 kmh WSW 4.5 mph7.2 kmh 30.05 in1017.6 mb 0.00 in0.0 mm 0.00 in0.0 mm 0.00 in0.0 mm
04:59 PM 67.6°F19.8°C 53.2°F11.8°C 60% 1.3 mph WSW2.1 kmh WSW 1.6 mph2.6 kmh 30.05 in1017.6 mb 0.00 in0.0 mm 0.00 in0.0 mm 0.00 in0.0 mm
04:56 PM 67.6°F19.8°C 53.2°F11.8°C 60% 1.3 mph WNW2.1 kmh WNW 4.9 mph7.9 kmh 30.05 in1017.6 mb 0.00 in0.0 mm 0.00 in0.0 mm 0.00 in0.0 mm
04:54 PM 67.8°F19.9°C 52.9°F11.6°C 59% 1.3 mph NW2.1 kmh NW 2.2 mph3.5 kmh 30.05 in1017.6 mb 0.00 in0.0 mm 0.00 in0.0 mm 0.00 in0.0 mm
04:52 PM 67.8°F19.9°C 52.9°F11.6°C 59% 1.8 mph WSW2.9 kmh WSW 3.4 mph5.5 kmh 30.05 in1017.6 mb 0.00 in0.0 mm 0.00 in0.0 mm 0.00 in0.0 mm
04:50 PM 67.8°F19.9°C 52.9°F11.6°C 59% 2.0 mph W3.2 kmh W 4.9 mph7.9 kmh 30.04 in1017.3 mb 0.00 in0.0 mm 0.00 in0.0 mm 0.00 in0.0 mm
04:48 PM 67.8°F19.9°C 52.9°F11.6°C 59% 2.7 mph NNW4.3 kmh NNW 4.3 mph6.9 kmh 30.05 in1017.6 mb 0.00 in0.0 mm 0.00 in0.0 mm 0.00 in0.0 mm
04:45 PM 68.2°F20.1°C 52.9°F11.6°C 58% 2.5 mph SSW4.0 kmh SSW 4.5 mph7.2 kmh 30.05 in1017.6 mb 0.00 in0.0 mm 0.00 in0.0 mm 0.00 in0.0 mm
04:43 PM 68.4°F20.2°C 52.5°F11.4°C 57% 2.7 mph 4.3 kmh 3.1 mph5.0 kmh 30.05 in1017.6 mb 0.00 in0.0 mm 0.00 in0.0 mm 0.00 in0.0 mm
04:41 PM 68.5°F20.3°C 52.7°F11.5°C 57% 2.7 mph WNW4.3 kmh WNW 5.8 mph9.3 kmh 30.04 in1017.3 mb 0.00 in0.0 mm 0.00 in0.0 mm 0.00 in0.0 mm
04:39 PM 68.7°F20.4°C 52.3°F11.3°C 56% 2.5 mph NNW4.0 kmh NNW 4.5 mph7.2 kmh 30.04 in1017.3 mb 0.00 in0.0 mm 0.00 in0.0 mm 0.00 in0.0 mm
04:37 PM 68.9°F20.5°C 52.5°F11.4°C 56% 2.5 mph NW4.0 kmh NW 7.4 mph11.9 kmh 30.05 in1017.6 mb 0.00 in0.0 mm 0.00 in0.0 mm 0.00 in0.0 mm
04:35 PM 69.1°F20.6°C 52.2°F11.2°C 55% 2.5 mph NNW4.0 kmh NNW 5.1 mph8.2 kmh 30.04 in1017.3 mb 0.00 in0.0 mm 0.00 in0.0 mm 0.00 in0.0 mm
04:32 PM 69.6°F20.9°C 52.7°F11.5°C 55% 2.5 mph S4.0 kmh S 4.0 mph6.4 kmh 30.04 in1017.3 mb 0.00 in0.0 mm 0.00 in0.0 mm 0.00 in0.0 mm
04:30 PM 69.8°F21.0°C 52.3°F11.3°C 54% 2.5 mph WNW4.0 kmh WNW 3.6 mph5.8 kmh 30.04 in1017.3 mb 0.00 in0.0 mm 0.00 in0.0 mm 0.00 in0.0 mm
04:28 PM 70.3°F21.3°C 51.4°F10.8°C 51% 2.5 mph NNW4.0 kmh NNW 4.5 mph7.2 kmh 30.04 in1017.3 mb 0.00 in0.0 mm 0.00 in0.0 mm 0.00 in0.0 mm
04:26 PM 70.7°F21.5°C 51.1°F10.6°C 50% 3.1 mph 5.0 kmh 5.1 mph8.2 kmh 30.05 in1017.6 mb 0.00 in0.0 mm 0.00 in0.0 mm 0.00 in0.0 mm
04:24 PM 71.2°F21.8°C 51.1°F10.6°C 49% 2.7 mph WNW4.3 kmh WNW 8.5 mph13.7 kmh 30.04 in1017.3 mb 0.00 in0.0 mm 0.00 in0.0 mm 0.00 in0.0 mm
04:22 PM 71.2°F21.8°C 48.2°F9.0°C 44% 2.0 mph W3.2 kmh W 5.1 mph8.2 kmh 30.04 in1017.3 mb 0.00 in0.0 mm 0.00 in0.0 mm 0.00 in0.0 mm
04:20 PM 71.2°F21.8°C 46.4°F8.0°C 41% 2.0 mph WNW3.2 kmh WNW 3.4 mph5.5 kmh 30.04 in1017.3 mb 0.00 in0.0 mm 0.00 in0.0 mm 0.00 in0.0 mm
04:17 PM 71.2°F21.8°C 46.4°F8.0°C 41% 1.8 mph 2.9 kmh 4.0 mph6.4 kmh 30.04 in1017.3 mb 0.00 in0.0 mm 0.00 in0.0 mm 0.00 in0.0 mm
04:15 PM 71.4°F21.9°C 46.6°F8.1°C 41% 1.3 mph NW2.1 kmh NW 2.0 mph3.2 kmh 30.04 in1017.3 mb 0.00 in0.0 mm 0.00 in0.0 mm 0.00 in0.0 mm
04:13 PM 71.4°F21.9°C 46.6°F8.1°C 41% 1.6 mph NNW2.6 kmh NNW 4.7 mph7.6 kmh 30.04 in1017.3 mb 0.00 in0.0 mm 0.00 in0.0 mm 0.00 in0.0 mm
04:11 PM 71.4°F21.9°C 46.6°F8.1°C 41% 1.3 mph 2.1 kmh 2.0 mph3.2 kmh 30.04 in1017.3 mb 0.00 in0.0 mm 0.00 in0.0 mm 0.00 in0.0 mm
04:09 PM 71.2°F21.8°C 46.9°F8.3°C 42% 1.3 mph WNW2.1 kmh WNW 2.2 mph3.5 kmh 30.04 in1017.3 mb 0.00 in0.0 mm 0.00 in0.0 mm 0.00 in0.0 mm
04:06 PM 71.2°F21.8°C 46.9°F8.3°C 42% 1.8 mph WNW2.9 kmh WNW 3.4 mph5.5 kmh 30.04 in1017.3 mb 0.00 in0.0 mm 0.00 in0.0 mm 0.00 in0.0 mm
04:04 PM 71.2°F21.8°C 46.9°F8.3°C 42% 2.7 mph NNW4.3 kmh NNW 3.8 mph6.1 kmh 30.04 in1017.3 mb 0.00 in0.0 mm 0.00 in0.0 mm 0.00 in0.0 mm
04:02 PM 71.2°F21.8°C 46.9°F8.3°C 42% 2.7 mph 4.3 kmh 6.3 mph10.1 kmh 30.05 in1017.6 mb 0.00 in0.0 mm 0.00 in0.0 mm 0.00 in0.0 mm
04:00 PM 71.4°F21.9°C 47.1°F8.4°C 42% 2.7 mph NNW4.3 kmh NNW 9.2 mph14.8 kmh 30.05 in1017.6 mb 0.00 in0.0 mm 0.00 in0.0 mm 0.00 in0.0 mm
03:58 PM 71.4°F21.9°C 46.6°F8.1°C 41% 2.0 mph WNW3.2 kmh WNW 4.7 mph7.6 kmh 30.04 in1017.3 mb 0.00 in0.0 mm 0.00 in0.0 mm 0.00 in0.0 mm
03:55 PM 71.4°F21.9°C 47.1°F8.4°C 42% 2.0 mph WNW3.2 kmh WNW 6.0 mph9.7 kmh 30.05 in1017.6 mb 0.00 in0.0 mm 0.00 in0.0 mm 0.00 in0.0 mm
03:53 PM 71.8°F22.1°C 47.5°F8.6°C 42% 1.8 mph NW2.9 kmh NW 3.1 mph5.0 kmh 30.05 in1017.6 mb 0.00 in0.0 mm 0.00 in0.0 mm 0.00 in0.0 mm
03:51 PM 71.8°F22.1°C 47.5°F8.6°C 42% 1.8 mph NW2.9 kmh NW 2.9 mph4.7 kmh 30.05 in1017.6 mb 0.00 in0.0 mm 0.00 in0.0 mm 0.00 in0.0 mm
03:49 PM 71.4°F21.9°C 47.1°F8.4°C 42% 2.0 mph NW3.2 kmh NW 3.8 mph6.1 kmh 30.05 in1017.6 mb 0.00 in0.0 mm 0.00 in0.0 mm 0.00 in0.0 mm
03:46 PM 71.2°F21.8°C 46.9°F8.3°C 42% 1.8 mph WSW2.9 kmh WSW 2.5 mph4.0 kmh 30.05 in1017.6 mb 0.00 in0.0 mm 0.00 in0.0 mm 0.00 in0.0 mm
03:44 PM 71.2°F21.8°C 46.9°F8.3°C 42% 2.0 mph NNW3.2 kmh NNW 2.2 mph3.5 kmh 30.05 in1017.6 mb 0.00 in0.0 mm 0.00 in0.0 mm 0.00 in0.0 mm
03:42 PM 71.2°F21.8°C 46.9°F8.3°C 42% 2.2 mph NNE3.5 kmh NNE 4.7 mph7.6 kmh 30.05 in1017.6 mb 0.00 in0.0 mm 0.00 in0.0 mm 0.00 in0.0 mm
03:40 PM 71.2°F21.8°C 47.7°F8.7°C 43% 2.2 mph NNW3.5 kmh NNW 3.4 mph5.5 kmh 30.05 in1017.6 mb 0.00 in0.0 mm 0.00 in0.0 mm 0.00 in0.0 mm
03:37 PM 71.2°F21.8°C 47.7°F8.7°C 43% 2.9 mph NW4.7 kmh NW 5.1 mph8.2 kmh 30.05 in1017.6 mb 0.00 in0.0 mm 0.00 in0.0 mm 0.00 in0.0 mm
03:35 PM 71.4°F21.9°C 47.8°F8.8°C 43% 2.2 mph 3.5 kmh 4.3 mph6.9 kmh 30.05 in1017.6 mb 0.00 in0.0 mm 0.00 in0.0 mm 0.00 in0.0 mm
03:33 PM 71.6°F22.0°C 47.8°F8.8°C 43% 2.0 mph 3.2 kmh 5.4 mph8.7 kmh 30.05 in1017.6 mb 0.00 in0.0 mm 0.00 in0.0 mm 0.00 in0.0 mm
03:31 PM 71.6°F22.0°C 47.3°F8.5°C 42% 1.8 mph 2.9 kmh 4.5 mph7.2 kmh 30.05 in1017.6 mb 0.00 in0.0 mm 0.00 in0.0 mm 0.00 in0.0 mm
03:28 PM 72.0°F22.2°C 47.7°F8.7°C 42% 2.2 mph WSW3.5 kmh WSW 4.0 mph6.4 kmh 30.05 in1017.6 mb 0.00 in0.0 mm 0.00 in0.0 mm 0.00 in0.0 mm
03:26 PM 72.0°F22.2°C 47.7°F8.7°C 42% 2.0 mph NW3.2 kmh NW 4.7 mph7.6 kmh 30.05 in1017.6 mb 0.00 in0.0 mm 0.00 in0.0 mm 0.00 in0.0 mm
03:24 PM 71.8°F22.1°C 47.5°F8.6°C 42% 1.6 mph WNW2.6 kmh WNW 2.2 mph3.5 kmh 30.05 in1017.6 mb 0.00 in0.0 mm 0.00 in0.0 mm 0.00 in0.0 mm
03:22 PM 72.0°F22.2°C 47.7°F8.7°C 42% 2.0 mph WNW3.2 kmh WNW 4.9 mph7.9 kmh 30.05 in1017.6 mb 0.00 in0.0 mm 0.00 in0.0 mm 0.00 in0.0 mm
03:19 PM 72.1°F22.3°C 47.8°F8.8°C 42% 1.3 mph WNW2.1 kmh WNW 3.1 mph5.0 kmh 30.05 in1017.6 mb 0.00 in0.0 mm 0.00 in0.0 mm 0.00 in0.0 mm
03:17 PM 72.1°F22.3°C 47.8°F8.8°C 42% 1.3 mph NNW2.1 kmh NNW 3.6 mph5.8 kmh 30.05 in1017.6 mb 0.00 in0.0 mm 0.00 in0.0 mm 0.00 in0.0 mm
03:15 PM 72.3°F22.4°C 47.3°F8.5°C 41% 1.8 mph 2.9 kmh 3.6 mph5.8 kmh 30.05 in1017.6 mb 0.00 in0.0 mm 0.00 in0.0 mm 0.00 in0.0 mm
03:13 PM 72.1°F22.3°C 47.1°F8.4°C 41% 1.8 mph NW2.9 kmh NW 2.9 mph4.7 kmh 30.05 in1017.6 mb 0.00 in0.0 mm 0.00 in0.0 mm 0.00 in0.0 mm
03:11 PM 72.3°F22.4°C 47.3°F8.5°C 41% 1.8 mph NNW2.9 kmh NNW 4.5 mph7.2 kmh 30.05 in1017.6 mb 0.00 in0.0 mm 0.00 in0.0 mm 0.00 in0.0 mm
03:08 PM 72.1°F22.3°C 47.1°F8.4°C 41% 1.6 mph WSW2.6 kmh WSW 5.1 mph8.2 kmh 30.05 in1017.6 mb 0.00 in0.0 mm 0.00 in0.0 mm 0.00 in0.0 mm
03:06 PM 72.3°F22.4°C 47.3°F8.5°C 41% 1.1 mph WNW1.8 kmh WNW 1.6 mph2.6 kmh 30.05 in1017.6 mb 0.00 in0.0 mm 0.00 in0.0 mm 0.00 in0.0 mm
03:04 PM 72.1°F22.3°C 47.8°F8.8°C 42% 1.3 mph W2.1 kmh W 2.2 mph3.5 kmh 30.05 in1017.6 mb 0.00 in0.0 mm 0.00 in0.0 mm 0.00 in0.0 mm
03:02 PM 72.0°F22.2°C 47.7°F8.7°C 42% 1.8 mph NNE2.9 kmh NNE 3.8 mph6.1 kmh 30.05 in1017.6 mb 0.00 in0.0 mm 0.00 in0.0 mm 0.00 in0.0 mm
03:00 PM 72.0°F22.2°C 47.7°F8.7°C 42% 1.3 mph WNW2.1 kmh WNW 2.2 mph3.5 kmh 30.05 in1017.6 mb 0.00 in0.0 mm 0.00 in0.0 mm 0.00 in0.0 mm
02:58 PM 71.4°F21.9°C 47.1°F8.4°C 42% 1.6 mph NNW2.6 kmh NNW 1.6 mph2.6 kmh 30.05 in1017.6 mb 0.00 in0.0 mm 0.00 in0.0 mm 0.00 in0.0 mm
02:55 PM 71.4°F21.9°C 47.1°F8.4°C 42% 2.2 mph WSW3.5 kmh WSW 4.0 mph6.4 kmh 30.05 in1017.6 mb 0.00 in0.0 mm 0.00 in0.0 mm 0.00 in0.0 mm
02:53 PM 71.4°F21.9°C 47.1°F8.4°C 42% 1.8 mph NNW2.9 kmh NNW 4.3 mph6.9 kmh 30.05 in1017.6 mb 0.00 in0.0 mm 0.00 in0.0 mm 0.00 in0.0 mm
02:51 PM 71.4°F21.9°C 47.1°F8.4°C 42% 1.8 mph WSW2.9 kmh WSW 1.1 mph1.8 kmh 30.05 in1017.6 mb 0.00 in0.0 mm 0.00 in0.0 mm 0.00 in0.0 mm
02:49 PM 71.4°F21.9°C 46.6°F8.1°C 41% 3.6 mph W5.8 kmh W 4.3 mph6.9 kmh 30.05 in1017.6 mb 0.00 in0.0 mm 0.00 in0.0 mm 0.00 in0.0 mm
02:47 PM 71.2°F21.8°C 46.4°F8.0°C 41% 3.6 mph W5.8 kmh W 5.4 mph8.7 kmh 30.05 in1017.6 mb 0.00 in0.0 mm 0.00 in0.0 mm 0.00 in0.0 mm
02:44 PM 71.2°F21.8°C 45.7°F7.6°C 40% 3.8 mph NNW6.1 kmh NNW 9.6 mph15.4 kmh 30.05 in1017.6 mb 0.00 in0.0 mm 0.00 in0.0 mm 0.00 in0.0 mm
02:42 PM 71.4°F21.9°C 45.9°F7.7°C 40% 2.2 mph NNW3.5 kmh NNW 5.4 mph8.7 kmh 30.06 in1017.9 mb 0.00 in0.0 mm 0.00 in0.0 mm 0.00 in0.0 mm
02:40 PM 71.2°F21.8°C 44.2°F6.8°C 38% 1.6 mph NNW2.6 kmh NNW 2.5 mph4.0 kmh 30.06 in1017.9 mb 0.00 in0.0 mm 0.00 in0.0 mm 0.00 in0.0 mm
02:38 PM 71.2°F21.8°C 44.2°F6.8°C 38% 2.0 mph NW3.2 kmh NW 3.4 mph5.5 kmh 30.05 in1017.6 mb 0.00 in0.0 mm 0.00 in0.0 mm 0.00 in0.0 mm
02:36 PM 71.2°F21.8°C 44.2°F6.8°C 38% 2.2 mph WSW3.5 kmh WSW 5.4 mph8.7 kmh 30.05 in1017.6 mb 0.00 in0.0 mm 0.00 in0.0 mm 0.00 in0.0 mm
02:33 PM 71.4°F21.9°C 44.4°F6.9°C 38% 2.5 mph NNW4.0 kmh NNW 5.1 mph8.2 kmh 30.05 in1017.6 mb 0.00 in0.0 mm 0.00 in0.0 mm 0.00 in0.0 mm
02:31 PM 71.4°F21.9°C 44.4°F6.9°C 38% 2.0 mph W3.2 kmh W 4.5 mph7.2 kmh 30.05 in1017.6 mb 0.00 in0.0 mm 0.00 in0.0 mm 0.00 in0.0 mm
02:29 PM 71.4°F21.9°C 43.7°F6.5°C 37% 1.3 mph SW2.1 kmh SW 2.0 mph3.2 kmh 30.05 in1017.6 mb 0.00 in0.0 mm 0.00 in0.0 mm 0.00 in0.0 mm
02:27 PM 71.2°F21.8°C 43.0°F6.1°C 36% 2.0 mph WNW3.2 kmh WNW 2.9 mph4.7 kmh 30.05 in1017.6 mb 0.00 in0.0 mm 0.00 in0.0 mm 0.00 in0.0 mm
02:24 PM 71.2°F21.8°C 43.0°F6.1°C 36% 2.7 mph NNW4.3 kmh NNW 5.4 mph8.7 kmh 30.05 in1017.6 mb 0.00 in0.0 mm 0.00 in0.0 mm 0.00 in0.0 mm
02:22 PM 71.4°F21.9°C 43.7°F6.5°C 37% 2.5 mph NW4.0 kmh NW 3.8 mph6.1 kmh 30.05 in1017.6 mb 0.00 in0.0 mm 0.00 in0.0 mm 0.00 in0.0 mm
02:20 PM 71.2°F21.8°C 44.2°F6.8°C 38% 2.5 mph NNW4.0 kmh NNW 3.1 mph5.0 kmh 30.05 in1017.6 mb 0.00 in0.0 mm 0.00 in0.0 mm 0.00 in0.0 mm
02:18 PM 70.9°F21.6°C 44.1°F6.7°C 38% 2.9 mph SSW4.7 kmh SSW 2.9 mph4.7 kmh 30.05 in1017.6 mb 0.00 in0.0 mm 0.00 in0.0 mm 0.00 in0.0 mm
02:15 PM 70.7°F21.5°C 43.2°F6.2°C 37% 4.0 mph WNW6.4 kmh WNW 8.9 mph14.3 kmh 30.05 in1017.6 mb 0.00 in0.0 mm 0.00 in0.0 mm 0.00 in0.0 mm
02:13 PM 70.9°F21.6°C 43.3°F6.3°C 37% 3.8 mph 6.1 kmh 8.5 mph13.7 kmh 30.06 in1017.9 mb 0.00 in0.0 mm 0.00 in0.0 mm 0.00 in0.0 mm
02:11 PM 70.9°F21.6°C 42.6°F5.9°C 36% 4.0 mph NNW6.4 kmh NNW 6.0 mph9.7 kmh 30.06 in1017.9 mb 0.00 in0.0 mm 0.00 in0.0 mm 0.00 in0.0 mm
02:09 PM 71.2°F21.8°C 43.0°F6.1°C 36% 3.1 mph 5.0 kmh 6.3 mph10.1 kmh 30.06 in1017.9 mb 0.00 in0.0 mm 0.00 in0.0 mm 0.00 in0.0 mm
02:06 PM 71.2°F21.8°C 44.2°F6.8°C 38% 2.7 mph 4.3 kmh 9.2 mph14.8 kmh 30.06 in1017.9 mb 0.00 in0.0 mm 0.00 in0.0 mm 0.00 in0.0 mm
02:04 PM 71.1°F21.7°C 44.8°F7.1°C 39% 2.5 mph 4.0 kmh 4.7 mph7.6 kmh 30.06 in1017.9 mb 0.00 in0.0 mm 0.00 in0.0 mm 0.00 in0.0 mm
02:02 PM 71.2°F21.8°C 44.2°F6.8°C 38% 2.9 mph NNE4.7 kmh NNE 6.9 mph11.1 kmh 30.06 in1017.9 mb 0.00 in0.0 mm 0.00 in0.0 mm 0.00 in0.0 mm
02:00 PM 70.9°F21.6°C 44.1°F6.7°C 38% 1.8 mph 2.9 kmh 3.1 mph5.0 kmh 30.06 in1017.9 mb 0.00 in0.0 mm 0.00 in0.0 mm 0.00 in0.0 mm
01:57 PM 70.7°F21.5°C 43.9°F6.6°C 38% 2.0 mph NW3.2 kmh NW 3.4 mph5.5 kmh 30.06 in1017.9 mb 0.00 in0.0 mm 0.00 in0.0 mm 0.00 in0.0 mm
01:55 PM 70.7°F21.5°C 43.2°F6.2°C 37% 2.5 mph WSW4.0 kmh WSW 3.6 mph5.8 kmh 30.06 in1017.9 mb 0.00 in0.0 mm 0.00 in0.0 mm 0.00 in0.0 mm
01:53 PM 70.5°F21.4°C 43.0°F6.1°C 37% 1.8 mph W2.9 kmh W 2.0 mph3.2 kmh 30.05 in1017.6 mb 0.00 in0.0 mm 0.00 in0.0 mm 0.00 in0.0 mm
01:51 PM 70.3°F21.3°C 43.5°F6.4°C 38% 2.0 mph WNW3.2 kmh WNW 4.5 mph7.2 kmh 30.06 in1017.9 mb 0.00 in0.0 mm 0.00 in0.0 mm 0.00 in0.0 mm
01:48 PM 70.5°F21.4°C 44.4°F6.9°C 39% 2.5 mph NNW4.0 kmh NNW 4.0 mph6.4 kmh 30.06 in1017.9 mb 0.00 in0.0 mm 0.00 in0.0 mm 0.00 in0.0 mm
01:46 PM 70.7°F21.5°C 44.6°F7.0°C 39% 2.2 mph NNW3.5 kmh NNW 4.0 mph6.4 kmh 30.06 in1017.9 mb 0.00 in0.0 mm 0.00 in0.0 mm 0.00 in0.0 mm
01:44 PM 70.9°F21.6°C 44.8°F7.1°C 39% 2.0 mph WNW3.2 kmh WNW 4.7 mph7.6 kmh 30.06 in1017.9 mb 0.00 in0.0 mm 0.00 in0.0 mm 0.00 in0.0 mm
01:42 PM 71.2°F21.8°C 46.4°F8.0°C 41% 1.6 mph WNW2.6 kmh WNW 5.1 mph8.2 kmh 30.05 in1017.6 mb 0.00 in0.0 mm 0.00 in0.0 mm 0.00 in0.0 mm
01:40 PM 70.9°F21.6°C 46.6°F8.1°C 42% 0.9 mph NW1.4 kmh NW 1.3 mph2.1 kmh 30.05 in1017.6 mb 0.00 in0.0 mm 0.00 in0.0 mm 0.00 in0.0 mm
01:37 PM 70.9°F21.6°C 46.0°F7.8°C 41% 1.6 mph WNW2.6 kmh WNW 2.7 mph4.3 kmh 30.06 in1017.9 mb 0.00 in0.0 mm 0.00 in0.0 mm 0.00 in0.0 mm
01:35 PM 71.2°F21.8°C 45.7°F7.6°C 40% 1.8 mph WNW2.9 kmh WNW 4.3 mph6.9 kmh 30.06 in1017.9 mb 0.00 in0.0 mm 0.00 in0.0 mm 0.00 in0.0 mm
01:33 PM 70.9°F21.6°C 47.8°F8.8°C 44% 0.4 mph NNW0.6 kmh NNW 1.1 mph1.8 kmh 30.06 in1017.9 mb 0.00 in0.0 mm 0.00 in0.0 mm 0.00 in0.0 mm
01:31 PM 70.5°F21.4°C 47.5°F8.6°C 44% 0.9 mph ESE1.4 kmh ESE 1.6 mph2.6 kmh 30.06 in1017.9 mb 0.00 in0.0 mm 0.00 in0.0 mm 0.00 in0.0 mm
01:28 PM 70.3°F21.3°C 46.8°F8.2°C 43% 1.3 mph 2.1 kmh 3.8 mph6.1 kmh 30.06 in1017.9 mb 0.00 in0.0 mm 0.00 in0.0 mm 0.00 in0.0 mm
01:26 PM 70.3°F21.3°C 47.5°F8.6°C 44% 1.6 mph WNW2.6 kmh WNW 3.8 mph6.1 kmh 30.06 in1017.9 mb 0.00 in0.0 mm 0.00 in0.0 mm 0.00 in0.0 mm
01:24 PM 70.2°F21.2°C 48.4°F9.1°C 46% 1.1 mph W1.8 kmh W 2.0 mph3.2 kmh 30.06 in1017.9 mb 0.00 in0.0 mm 0.00 in0.0 mm 0.00 in0.0 mm
01:22 PM 69.8°F21.0°C 48.7°F9.3°C 47% 1.6 mph W2.6 kmh W 2.0 mph3.2 kmh 30.07 in1018.3 mb 0.00 in0.0 mm 0.00 in0.0 mm 0.00 in0.0 mm
01:20 PM 69.6°F20.9°C 47.8°F8.8°C 46% 2.5 mph W4.0 kmh W 4.9 mph7.9 kmh 30.06 in1017.9 mb 0.00 in0.0 mm 0.00 in0.0 mm 0.00 in0.0 mm
01:17 PM 69.8°F21.0°C 48.0°F8.9°C 46% 2.2 mph NW3.5 kmh NW 4.3 mph6.9 kmh 30.07 in1018.3 mb 0.00 in0.0 mm 0.00 in0.0 mm 0.00 in0.0 mm
01:15 PM 70.3°F21.3°C 48.6°F9.2°C 46% 2.5 mph W4.0 kmh W 5.6 mph9.0 kmh 30.06 in1017.9 mb 0.00 in0.0 mm 0.00 in0.0 mm 0.00 in0.0 mm
01:13 PM 70.3°F21.3°C 49.6°F9.8°C 48% 2.2 mph W3.5 kmh W 3.8 mph6.1 kmh 30.07 in1018.3 mb 0.00 in0.0 mm 0.00 in0.0 mm 0.00 in0.0 mm
01:11 PM 70.3°F21.3°C 49.6°F9.8°C 48% 2.5 mph W4.0 kmh W 3.8 mph6.1 kmh 30.07 in1018.3 mb 0.00 in0.0 mm 0.00 in0.0 mm 0.00 in0.0 mm
01:09 PM 70.3°F21.3°C 49.6°F9.8°C 48% 2.7 mph SW4.3 kmh SW 4.5 mph7.2 kmh 30.07 in1018.3 mb 0.00 in0.0 mm 0.00 in0.0 mm 0.00 in0.0 mm
01:07 PM 70.3°F21.3°C 50.9°F10.5°C 50% 2.0 mph NNW3.2 kmh NNW 4.9 mph7.9 kmh 30.07 in1018.3 mb 0.00 in0.0 mm 0.00 in0.0 mm 0.00 in0.0 mm
01:04 PM 70.3°F21.3°C 50.9°F10.5°C 50% 1.1 mph W1.8 kmh W 2.5 mph4.0 kmh 30.07 in1018.3 mb 0.00 in0.0 mm 0.00 in0.0 mm 0.00 in0.0 mm
01:02 PM 70.0°F21.1°C 51.1°F10.6°C 51% 0.9 mph W1.4 kmh W 2.2 mph3.5 kmh 30.07 in1018.3 mb 0.00 in0.0 mm 0.00 in0.0 mm 0.00 in0.0 mm
01:00 PM 69.6°F20.9°C 51.3°F10.7°C 52% 0.9 mph 1.4 kmh 1.1 mph1.8 kmh 30.07 in1018.3 mb 0.00 in0.0 mm 0.00 in0.0 mm 0.00 in0.0 mm
12:58 PM 69.4°F20.8°C 50.5°F10.3°C 51% 1.3 mph WSW2.1 kmh WSW 1.6 mph2.6 kmh 30.08 in1018.6 mb 0.00 in0.0 mm 0.00 in0.0 mm 0.00 in0.0 mm
12:55 PM 69.4°F20.8°C 50.5°F10.3°C 51% 2.2 mph NNE3.5 kmh NNE 6.0 mph9.7 kmh 30.07 in1018.3 mb 0.00 in0.0 mm 0.00 in0.0 mm 0.00 in0.0 mm
12:53 PM 69.4°F20.8°C 51.1°F10.6°C 52% 1.8 mph WNW2.9 kmh WNW 2.9 mph4.7 kmh 30.07 in1018.3 mb 0.00 in0.0 mm 0.00 in0.0 mm 0.00 in0.0 mm
12:51 PM 69.4°F20.8°C 52.2°F11.2°C 54% 1.8 mph NNW2.9 kmh NNW 2.9 mph4.7 kmh 30.08 in1018.6 mb 0.00 in0.0 mm 0.00 in0.0 mm 0.00 in0.0 mm
12:49 PM 69.1°F20.6°C 51.8°F11.0°C 54% 1.6 mph 2.6 kmh 2.0 mph3.2 kmh 30.08 in1018.6 mb 0.00 in0.0 mm 0.00 in0.0 mm 0.00 in0.0 mm
12:47 PM 68.7°F20.4°C 52.0°F11.1°C 55% 1.8 mph 2.9 kmh 2.0 mph3.2 kmh 30.08 in1018.6 mb 0.00 in0.0 mm 0.00 in0.0 mm 0.00 in0.0 mm
12:45 PM 68.5°F20.3°C 51.8°F11.0°C 55% 1.8 mph NNW2.9 kmh NNW 3.4 mph5.5 kmh 30.08 in1018.6 mb 0.00 in0.0 mm 0.00 in0.0 mm 0.00 in0.0 mm
12:43 PM 68.7°F20.4°C 52.3°F11.3°C 56% 1.8 mph NW2.9 kmh NW 2.9 mph4.7 kmh 30.08 in1018.6 mb 0.00 in0.0 mm 0.00 in0.0 mm 0.00 in0.0 mm
12:40 PM 68.5°F20.3°C 52.2°F11.2°C 56% 2.0 mph SSW3.2 kmh SSW 5.4 mph8.7 kmh 30.08 in1018.6 mb 0.00 in0.0 mm 0.00 in0.0 mm 0.00 in0.0 mm
12:38 PM 68.5°F20.3°C 52.2°F11.2°C 56% 2.5 mph 4.0 kmh 5.1 mph8.2 kmh 30.08 in1018.6 mb 0.00 in0.0 mm 0.00 in0.0 mm 0.00 in0.0 mm
12:36 PM 68.5°F20.3°C 52.2°F11.2°C 56% 2.5 mph WNW4.0 kmh WNW 5.4 mph8.7 kmh 30.09 in1019.0 mb 0.00 in0.0 mm 0.00 in0.0 mm 0.00 in0.0 mm
12:33 PM 68.9°F20.5°C 52.5°F11.4°C 56% 1.8 mph NNW2.9 kmh NNW 3.6 mph5.8 kmh 30.08 in1018.6 mb 0.00 in0.0 mm 0.00 in0.0 mm 0.00 in0.0 mm
12:31 PM 68.9°F20.5°C 53.1°F11.7°C 57% 1.8 mph WNW2.9 kmh WNW 3.4 mph5.5 kmh 30.08 in1018.6 mb 0.00 in0.0 mm 0.00 in0.0 mm 0.00 in0.0 mm
12:29 PM 68.7°F20.4°C 52.9°F11.6°C 57% 1.8 mph 2.9 kmh 3.1 mph5.0 kmh 30.09 in1019.0 mb 0.00 in0.0 mm 0.00 in0.0 mm 0.00 in0.0 mm
12:27 PM 68.5°F20.3°C 52.7°F11.5°C 57% 2.5 mph WNW4.0 kmh WNW 5.1 mph8.2 kmh 30.09 in1019.0 mb 0.00 in0.0 mm 0.00 in0.0 mm 0.00 in0.0 mm
12:24 PM 68.5°F20.3°C 53.2°F11.8°C 58% 2.0 mph W3.2 kmh W 4.0 mph6.4 kmh 30.09 in1019.0 mb 0.00 in0.0 mm 0.00 in0.0 mm 0.00 in0.0 mm
12:22 PM 68.4°F20.2°C 53.4°F11.9°C 59% 2.0 mph WNW3.2 kmh WNW 3.8 mph6.1 kmh 30.09 in1019.0 mb 0.00 in0.0 mm 0.00 in0.0 mm 0.00 in0.0 mm
12:20 PM 68.2°F20.1°C 53.8°F12.1°C 60% 1.3 mph WNW2.1 kmh WNW 3.4 mph5.5 kmh 30.09 in1019.0 mb 0.00 in0.0 mm 0.00 in0.0 mm 0.00 in0.0 mm
12:18 PM 67.8°F19.9°C 52.9°F11.6°C 59% 2.2 mph SSE3.5 kmh SSE 5.8 mph9.3 kmh 30.09 in1019.0 mb 0.00 in0.0 mm 0.00 in0.0 mm 0.00 in0.0 mm
12:16 PM 68.2°F20.1°C 53.8°F12.1°C 60% 2.2 mph NNW3.5 kmh NNW 9.2 mph14.8 kmh 30.09 in1019.0 mb 0.00 in0.0 mm 0.00 in0.0 mm 0.00 in0.0 mm
12:13 PM 68.2°F20.1°C 54.7°F12.6°C 62% 1.1 mph ENE1.8 kmh ENE 2.0 mph3.2 kmh 30.09 in1019.0 mb 0.00 in0.0 mm 0.00 in0.0 mm 0.00 in0.0 mm
12:11 PM 68.0°F20.0°C 54.5°F12.5°C 62% 1.3 mph 2.1 kmh 2.7 mph4.3 kmh 30.09 in1019.0 mb 0.00 in0.0 mm 0.00 in0.0 mm 0.00 in0.0 mm
12:09 PM 67.6°F19.8°C 54.1°F12.3°C 62% 1.3 mph ENE2.1 kmh ENE 2.2 mph3.5 kmh 30.09 in1019.0 mb 0.00 in0.0 mm 0.00 in0.0 mm 0.00 in0.0 mm
12:07 PM 67.6°F19.8°C 54.1°F12.3°C 62% 2.2 mph 3.5 kmh 4.0 mph6.4 kmh 30.09 in1019.0 mb 0.00 in0.0 mm 0.00 in0.0 mm 0.00 in0.0 mm
12:05 PM 67.3°F19.6°C 54.3°F12.4°C 63% 1.8 mph NW2.9 kmh NW 4.3 mph6.9 kmh 30.09 in1019.0 mb 0.00 in0.0 mm 0.00 in0.0 mm 0.00 in0.0 mm
12:02 PM 67.1°F19.5°C 53.6°F12.0°C 62% 1.8 mph 2.9 kmh 2.9 mph4.7 kmh 30.09 in1019.0 mb 0.00 in0.0 mm 0.00 in0.0 mm 0.00 in0.0 mm
12:00 PM 67.1°F19.5°C 53.6°F12.0°C 62% 2.2 mph NNW3.5 kmh NNW 5.4 mph8.7 kmh 30.10 in1019.3 mb 0.00 in0.0 mm 0.00 in0.0 mm 0.00 in0.0 mm
11:58 AM 67.1°F19.5°C 54.1°F12.3°C 63% 0.7 mph W1.1 kmh W 1.3 mph2.1 kmh 30.09 in1019.0 mb 0.00 in0.0 mm 0.00 in0.0 mm 0.00 in0.0 mm
11:56 AM 66.9°F19.4°C 54.0°F12.2°C 63% 0.9 mph NNW1.4 kmh NNW 2.0 mph3.2 kmh 30.10 in1019.3 mb 0.00 in0.0 mm 0.00 in0.0 mm 0.00 in0.0 mm
11:53 AM 66.7°F19.3°C 53.8°F12.1°C 63% 1.1 mph 1.8 kmh 2.0 mph3.2 kmh 30.09 in1019.0 mb 0.00 in0.0 mm 0.00 in0.0 mm 0.00 in0.0 mm
11:51 AM 66.6°F19.2°C 53.6°F12.0°C 63% 1.3 mph W2.1 kmh W 3.6 mph5.8 kmh 30.09 in1019.0 mb 0.00 in0.0 mm 0.00 in0.0 mm 0.00 in0.0 mm
11:49 AM 66.7°F19.3°C 53.8°F12.1°C 63% 2.0 mph NNW3.2 kmh NNW 3.4 mph5.5 kmh 30.09 in1019.0 mb 0.00 in0.0 mm 0.00 in0.0 mm 0.00 in0.0 mm
11:46 AM 66.6°F19.2°C 53.6°F12.0°C 63% 1.6 mph NNW2.6 kmh NNW 2.7 mph4.3 kmh 30.09 in1019.0 mb 0.00 in0.0 mm 0.00 in0.0 mm 0.00 in0.0 mm
11:44 AM 66.7°F19.3°C 53.8°F12.1°C 63% 2.0 mph WSW3.2 kmh WSW 4.0 mph6.4 kmh 30.09 in1019.0 mb 0.00 in0.0 mm 0.00 in0.0 mm 0.00 in0.0 mm
11:42 AM 66.7°F19.3°C 54.1°F12.3°C 64% 0.7 mph NW1.1 kmh NW 0.9 mph1.4 kmh 30.09 in1019.0 mb 0.00 in0.0 mm 0.00 in0.0 mm 0.00 in0.0 mm
11:40 AM 66.7°F19.3°C 54.1°F12.3°C 64% 1.1 mph W1.8 kmh W 3.1 mph5.0 kmh 30.09 in1019.0 mb 0.00 in0.0 mm 0.00 in0.0 mm 0.00 in0.0 mm
11:38 AM 66.7°F19.3°C 54.1°F12.3°C 64% 1.1 mph NW1.8 kmh NW 1.6 mph2.6 kmh 30.09 in1019.0 mb 0.00 in0.0 mm 0.00 in0.0 mm 0.00 in0.0 mm
11:35 AM 66.6°F19.2°C 54.5°F12.5°C 65% 1.1 mph WNW1.8 kmh WNW 2.5 mph4.0 kmh 30.10 in1019.3 mb 0.00 in0.0 mm 0.00 in0.0 mm 0.00 in0.0 mm
11:33 AM 66.4°F19.1°C 54.3°F12.4°C 65% 0.7 mph 1.1 kmh 1.3 mph2.1 kmh 30.09 in1019.0 mb 0.00 in0.0 mm 0.00 in0.0 mm 0.00 in0.0 mm
11:31 AM 66.2°F19.0°C 54.1°F12.3°C 65% 0.9 mph S1.4 kmh S 1.1 mph1.8 kmh 30.10 in1019.3 mb 0.00 in0.0 mm 0.00 in0.0 mm 0.00 in0.0 mm
11:29 AM 66.2°F19.0°C 54.1°F12.3°C 65% 1.6 mph NNW2.6 kmh NNW 2.7 mph4.3 kmh 30.10 in1019.3 mb 0.00 in0.0 mm 0.00 in0.0 mm 0.00 in0.0 mm
11:26 AM 66.0°F18.9°C 54.3°F12.4°C 66% 1.8 mph NNE2.9 kmh NNE 5.4 mph8.7 kmh 30.10 in1019.3 mb 0.00 in0.0 mm 0.00 in0.0 mm 0.00 in0.0 mm
11:24 AM 65.8°F18.8°C 54.5°F12.5°C 67% 0.7 mph NE1.1 kmh NE 1.1 mph1.8 kmh 30.10 in1019.3 mb 0.00 in0.0 mm 0.00 in0.0 mm 0.00 in0.0 mm
11:22 AM 65.5°F18.6°C 53.8°F12.1°C 66% 1.1 mph NE1.8 kmh NE 1.3 mph2.1 kmh 30.10 in1019.3 mb 0.00 in0.0 mm 0.00 in0.0 mm 0.00 in0.0 mm
11:20 AM 65.3°F18.5°C 53.6°F12.0°C 66% 1.6 mph NNW2.6 kmh NNW 2.0 mph3.2 kmh 30.10 in1019.3 mb 0.00 in0.0 mm 0.00 in0.0 mm 0.00 in0.0 mm
11:17 AM 65.3°F18.5°C 53.6°F12.0°C 66% 1.6 mph NNW2.6 kmh NNW 3.1 mph5.0 kmh 30.10 in1019.3 mb 0.00 in0.0 mm 0.00 in0.0 mm 0.00 in0.0 mm
11:15 AM 65.1°F18.4°C 53.4°F11.9°C 66% 1.6 mph SSE2.6 kmh SSE 2.5 mph4.0 kmh 30.10 in1019.3 mb 0.00 in0.0 mm 0.00 in0.0 mm 0.00 in0.0 mm
11:13 AM 65.1°F18.4°C 53.4°F11.9°C 66% 2.0 mph NW3.2 kmh NW 4.3 mph6.9 kmh 30.10 in1019.3 mb 0.00 in0.0 mm 0.00 in0.0 mm 0.00 in0.0 mm
11:11 AM 65.1°F18.4°C 54.0°F12.2°C 67% 1.3 mph NNW2.1 kmh NNW 2.0 mph3.2 kmh 30.10 in1019.3 mb 0.00 in0.0 mm 0.00 in0.0 mm 0.00 in0.0 mm
11:08 AM 64.9°F18.3°C 53.8°F12.1°C 67% 1.8 mph NNW2.9 kmh NNW 2.9 mph4.7 kmh 30.10 in1019.3 mb 0.00 in0.0 mm 0.00 in0.0 mm 0.00 in0.0 mm
11:06 AM 64.9°F18.3°C 53.8°F12.1°C 67% 2.2 mph ENE3.5 kmh ENE 3.6 mph5.8 kmh 30.10 in1019.3 mb 0.00 in0.0 mm 0.00 in0.0 mm 0.00 in0.0 mm
11:04 AM 64.8°F18.2°C 53.6°F12.0°C 67% 1.8 mph 2.9 kmh 3.6 mph5.8 kmh 30.10 in1019.3 mb 0.00 in0.0 mm 0.00 in0.0 mm 0.00 in0.0 mm
11:02 AM 64.9°F18.3°C 53.8°F12.1°C 67% 1.8 mph NW2.9 kmh NW 4.0 mph6.4 kmh 30.10 in1019.3 mb 0.00 in0.0 mm 0.00 in0.0 mm 0.00 in0.0 mm
11:00 AM 64.8°F18.2°C 54.0°F12.2°C 68% 1.8 mph WSW2.9 kmh WSW 4.9 mph7.9 kmh 30.10 in1019.3 mb 0.00 in0.0 mm 0.00 in0.0 mm 0.00 in0.0 mm
10:57 AM 64.8°F18.2°C 54.0°F12.2°C 68% 1.6 mph NW2.6 kmh NW 5.1 mph8.2 kmh 30.10 in1019.3 mb 0.00 in0.0 mm 0.00 in0.0 mm 0.00 in0.0 mm
10:55 AM 64.8°F18.2°C 54.3°F12.4°C 69% 1.1 mph NW1.8 kmh NW 2.2 mph3.5 kmh 30.10 in1019.3 mb 0.00 in0.0 mm 0.00 in0.0 mm 0.00 in0.0 mm
10:53 AM 64.4°F18.0°C 54.0°F12.2°C 69% 1.1 mph WNW1.8 kmh WNW 1.8 mph2.9 kmh 30.10 in1019.3 mb 0.00 in0.0 mm 0.00 in0.0 mm 0.00 in0.0 mm
10:51 AM 64.2°F17.9°C 53.8°F12.1°C 69% 1.6 mph NNW2.6 kmh NNW 3.6 mph5.8 kmh 30.09 in1019.0 mb 0.00 in0.0 mm 0.00 in0.0 mm 0.00 in0.0 mm
10:48 AM 64.2°F17.9°C 54.3°F12.4°C 70% 1.6 mph 2.6 kmh 4.3 mph6.9 kmh 30.10 in1019.3 mb 0.00 in0.0 mm 0.00 in0.0 mm 0.00 in0.0 mm
10:46 AM 64.0°F17.8°C 54.1°F12.3°C 70% 0.9 mph WNW1.4 kmh WNW 1.8 mph2.9 kmh 30.10 in1019.3 mb 0.00 in0.0 mm 0.00 in0.0 mm 0.00 in0.0 mm
10:44 AM 63.7°F17.6°C 53.2°F11.8°C 69% 1.3 mph NW2.1 kmh NW 3.8 mph6.1 kmh 30.10 in1019.3 mb 0.00 in0.0 mm 0.00 in0.0 mm 0.00 in0.0 mm
10:42 AM 63.7°F17.6°C 53.8°F12.1°C 70% 0.9 mph NW1.4 kmh NW 2.0 mph3.2 kmh 30.10 in1019.3 mb 0.00 in0.0 mm 0.00 in0.0 mm 0.00 in0.0 mm
10:40 AM 63.5°F17.5°C 53.6°F12.0°C 70% 0.9 mph NNW1.4 kmh NNW 1.3 mph2.1 kmh 30.10 in1019.3 mb 0.00 in0.0 mm 0.00 in0.0 mm 0.00 in0.0 mm
10:38 AM 63.3°F17.4°C 53.4°F11.9°C 70% 1.3 mph NNW2.1 kmh NNW 1.6 mph2.6 kmh 30.10 in1019.3 mb 0.00 in0.0 mm 0.00 in0.0 mm 0.00 in0.0 mm
10:35 AM 63.3°F17.4°C 53.4°F11.9°C 70% 1.8 mph 2.9 kmh 3.4 mph5.5 kmh 30.10 in1019.3 mb 0.00 in0.0 mm 0.00 in0.0 mm 0.00 in0.0 mm
10:33 AM 63.1°F17.3°C 53.2°F11.8°C 70% 1.3 mph WNW2.1 kmh WNW 2.9 mph4.7 kmh 30.10 in1019.3 mb 0.00 in0.0 mm 0.00 in0.0 mm 0.00 in0.0 mm
10:31 AM 63.3°F17.4°C 53.4°F11.9°C 70% 1.3 mph 2.1 kmh 3.1 mph5.0 kmh 30.10 in1019.3 mb 0.00 in0.0 mm 0.00 in0.0 mm 0.00 in0.0 mm
10:29 AM 63.5°F17.5°C 54.0°F12.2°C 71% 0.4 mph NNW0.6 kmh NNW 1.6 mph2.6 kmh 30.10 in1019.3 mb 0.00 in0.0 mm 0.00 in0.0 mm 0.00 in0.0 mm
10:27 AM 63.3°F17.4°C 54.1°F12.3°C 72% 0.4 mph NW0.6 kmh NW 0.7 mph1.1 kmh 30.10 in1019.3 mb 0.00 in0.0 mm 0.00 in0.0 mm 0.00 in0.0 mm
10:24 AM 63.1°F17.3°C 54.0°F12.2°C 72% 0.4 mph 0.6 kmh 2.5 mph4.0 kmh 30.11 in1019.6 mb 0.00 in0.0 mm 0.00 in0.0 mm 0.00 in0.0 mm
10:22 AM 63.1°F17.3°C 54.0°F12.2°C 72% 0.4 mph NNW0.6 kmh NNW 1.6 mph2.6 kmh 30.11 in1019.6 mb 0.00 in0.0 mm 0.00 in0.0 mm 0.00 in0.0 mm
10:20 AM 63.0°F17.2°C 53.8°F12.1°C 72% 0.4 mph WSW0.6 kmh WSW 2.2 mph3.5 kmh 30.10 in1019.3 mb 0.00 in0.0 mm 0.00 in0.0 mm 0.00 in0.0 mm
10:18 AM 63.0°F17.2°C 53.8°F12.1°C 72% 0.4 mph NNW0.6 kmh NNW 1.8 mph2.9 kmh 30.11 in1019.6 mb 0.00 in0.0 mm 0.00 in0.0 mm 0.00 in0.0 mm
10:16 AM 63.0°F17.2°C 54.1°F12.3°C 73% 0.2 mph NW0.3 kmh NW -- 30.11 in1019.6 mb 0.00 in0.0 mm 0.00 in0.0 mm 0.00 in0.0 mm
10:14 AM 62.4°F16.9°C 53.6°F12.0°C 73% 0.4 mph SW0.6 kmh SW 0.9 mph1.4 kmh 30.11 in1019.6 mb 0.00 in0.0 mm 0.00 in0.0 mm 0.00 in0.0 mm
10:11 AM 62.2°F16.8°C 53.4°F11.9°C 73% 0.7 mph NW1.1 kmh NW 1.3 mph2.1 kmh 30.11 in1019.6 mb 0.00 in0.0 mm 0.00 in0.0 mm 0.00 in0.0 mm
10:09 AM 62.1°F16.7°C 53.2°F11.8°C 73% 0.9 mph NNW1.4 kmh NNW 2.2 mph3.5 kmh 30.11 in1019.6 mb 0.00 in0.0 mm 0.00 in0.0 mm 0.00 in0.0 mm
10:07 AM 61.9°F16.6°C 52.7°F11.5°C 72% 0.9 mph WNW1.4 kmh WNW 1.6 mph2.6 kmh 30.11 in1019.6 mb 0.00 in0.0 mm 0.00 in0.0 mm 0.00 in0.0 mm
10:05 AM 61.7°F16.5°C 52.5°F11.4°C 72% 0.9 mph NNW1.4 kmh NNW 2.9 mph4.7 kmh 30.11 in1019.6 mb 0.00 in0.0 mm 0.00 in0.0 mm 0.00 in0.0 mm
10:02 AM 61.9°F16.6°C 52.7°F11.5°C 72% 0.9 mph WNW1.4 kmh WNW 2.2 mph3.5 kmh 30.12 in1020.0 mb 0.00 in0.0 mm 0.00 in0.0 mm 0.00 in0.0 mm
10:00 AM 61.9°F16.6°C 52.7°F11.5°C 72% 0.7 mph NW1.1 kmh NW 1.3 mph2.1 kmh 30.11 in1019.6 mb 0.00 in0.0 mm 0.00 in0.0 mm 0.00 in0.0 mm
09:58 AM 62.2°F16.8°C 52.7°F11.5°C 71% 0.9 mph NNW1.4 kmh NNW 1.6 mph2.6 kmh 30.11 in1019.6 mb 0.00 in0.0 mm 0.00 in0.0 mm 0.00 in0.0 mm
09:55 AM 62.2°F16.8°C 52.7°F11.5°C 71% 1.1 mph NNW1.8 kmh NNW 1.6 mph2.6 kmh 30.11 in1019.6 mb 0.00 in0.0 mm 0.00 in0.0 mm 0.00 in0.0 mm
09:53 AM 62.8°F17.1°C 53.6°F12.0°C 72% 1.6 mph 2.6 kmh 2.2 mph3.5 kmh 30.11 in1019.6 mb 0.00 in0.0 mm 0.00 in0.0 mm 0.00 in0.0 mm
09:51 AM 63.1°F17.3°C 54.0°F12.2°C 72% 1.3 mph WNW2.1 kmh WNW 2.2 mph3.5 kmh 30.11 in1019.6 mb 0.00 in0.0 mm 0.00 in0.0 mm 0.00 in0.0 mm
09:49 AM 63.7°F17.6°C 55.2°F12.9°C 74% 1.1 mph NNW1.8 kmh NNW 3.4 mph5.5 kmh 30.11 in1019.6 mb 0.00 in0.0 mm 0.00 in0.0 mm 0.00 in0.0 mm
09:47 AM 63.9°F17.7°C 55.8°F13.2°C 75% 0.4 mph NNW0.6 kmh NNW 1.3 mph2.1 kmh 30.11 in1019.6 mb 0.00 in0.0 mm 0.00 in0.0 mm 0.00 in0.0 mm
09:45 AM 63.7°F17.6°C 55.9°F13.3°C 76% 0.2 mph SW0.3 kmh SW -- 30.11 in1019.6 mb 0.00 in0.0 mm 0.00 in0.0 mm 0.00 in0.0 mm
09:43 AM 63.3°F17.4°C 55.6°F13.1°C 76% 0.2 mph SE0.3 kmh SE -- 30.11 in1019.6 mb 0.00 in0.0 mm 0.00 in0.0 mm 0.00 in0.0 mm
09:40 AM 63.1°F17.3°C 55.4°F13.0°C 76% 0.2 mph SE0.3 kmh SE -- 30.11 in1019.6 mb 0.00 in0.0 mm 0.00 in0.0 mm 0.00 in0.0 mm
09:38 AM 62.8°F17.1°C 55.0°F12.8°C 76% 0.2 mph SE0.3 kmh SE -- 30.11 in1019.6 mb 0.00 in0.0 mm 0.00 in0.0 mm 0.00 in0.0 mm
09:36 AM 62.4°F16.9°C 55.0°F12.8°C 77% 0.4 mph E0.6 kmh E 1.1 mph1.8 kmh 30.11 in1019.6 mb 0.00 in0.0 mm 0.00 in0.0 mm 0.00 in0.0 mm
09:34 AM 62.6°F17.0°C 55.2°F12.9°C 77% 0.4 mph NNW0.6 kmh NNW 1.8 mph2.9 kmh 30.11 in1019.6 mb 0.00 in0.0 mm 0.00 in0.0 mm 0.00 in0.0 mm
09:31 AM 63.3°F17.4°C 56.3°F13.5°C 78% 0.2 mph NNE0.3 kmh NNE -- 30.11 in1019.6 mb 0.00 in0.0 mm 0.00 in0.0 mm 0.00 in0.0 mm
09:29 AM 63.1°F17.3°C 56.5°F13.6°C 79% 0.2 mph ESE0.3 kmh ESE -- 30.11 in1019.6 mb 0.00 in0.0 mm 0.00 in0.0 mm 0.00 in0.0 mm
09:27 AM 62.4°F16.9°C 55.8°F13.2°C 79% 0.2 mph SE0.3 kmh SE -- 30.11 in1019.6 mb 0.00 in0.0 mm 0.00 in0.0 mm 0.00 in0.0 mm
09:25 AM 62.4°F16.9°C 56.1°F13.4°C 80% 0.2 mph 0.3 kmh -- 30.11 in1019.6 mb 0.00 in0.0 mm 0.00 in0.0 mm 0.00 in0.0 mm
09:22 AM 62.4°F16.9°C 56.1°F13.4°C 80% 0.2 mph 0.3 kmh -- 30.11 in1019.6 mb 0.00 in0.0 mm 0.00 in0.0 mm 0.00 in0.0 mm
09:20 AM 62.2°F16.8°C 56.3°F13.5°C 81% 0.2 mph 0.3 kmh -- 30.11 in1019.6 mb 0.00 in0.0 mm 0.00 in0.0 mm 0.00 in0.0 mm
09:18 AM 62.1°F16.7°C 56.1°F13.4°C 81% 0.2 mph NE0.3 kmh NE -- 30.11 in1019.6 mb 0.00 in0.0 mm 0.00 in0.0 mm 0.00 in0.0 mm
09:16 AM 61.7°F16.5°C 55.8°F13.2°C 81% 0.2 mph NE0.3 kmh NE -- 30.11 in1019.6 mb 0.00 in0.0 mm 0.00 in0.0 mm 0.00 in0.0 mm
09:14 AM 61.5°F16.4°C 55.6°F13.1°C 81% 0.2 mph ENE0.3 kmh ENE -- 30.11 in1019.6 mb 0.00 in0.0 mm 0.00 in0.0 mm 0.00 in0.0 mm
09:11 AM 61.2°F16.2°C 55.2°F12.9°C 81% 0.4 mph 0.6 kmh -- 30.11 in1019.6 mb 0.00 in0.0 mm 0.00 in0.0 mm 0.00 in0.0 mm
09:09 AM 61.2°F16.2°C 55.2°F12.9°C 81% 0.7 mph NNW1.1 kmh NNW 1.8 mph2.9 kmh 30.11 in1019.6 mb 0.00 in0.0 mm 0.00 in0.0 mm 0.00 in0.0 mm
09:07 AM 61.0°F16.1°C 55.4°F13.0°C 82% 0.7 mph WNW1.1 kmh WNW 1.1 mph1.8 kmh 30.11 in1019.6 mb 0.00 in0.0 mm 0.00 in0.0 mm 0.00 in0.0 mm
09:05 AM 60.4°F15.8°C 54.9°F12.7°C 82% 0.9 mph E1.4 kmh E 2.2 mph3.5 kmh 30.11 in1019.6 mb 0.00 in0.0 mm 0.00 in0.0 mm 0.00 in0.0 mm
09:03 AM 60.1°F15.6°C 54.5°F12.5°C 82% 1.1 mph SE1.8 kmh SE 1.8 mph2.9 kmh 30.11 in1019.6 mb 0.00 in0.0 mm 0.00 in0.0 mm 0.00 in0.0 mm
09:00 AM 59.5°F15.3°C 54.0°F12.2°C 82% 1.3 mph E2.1 kmh E 1.8 mph2.9 kmh 30.11 in1019.6 mb 0.00 in0.0 mm 0.00 in0.0 mm 0.00 in0.0 mm
08:58 AM 59.2°F15.1°C 53.6°F12.0°C 82% 2.0 mph E3.2 kmh E 2.7 mph4.3 kmh 30.11 in1019.6 mb 0.00 in0.0 mm 0.00 in0.0 mm 0.00 in0.0 mm
08:56 AM 58.6°F14.8°C 53.2°F11.8°C 82% 2.0 mph ESE3.2 kmh ESE 2.7 mph4.3 kmh 30.11 in1019.6 mb 0.00 in0.0 mm 0.00 in0.0 mm 0.00 in0.0 mm
08:54 AM 58.3°F14.6°C 53.1°F11.7°C 83% 2.0 mph E3.2 kmh E 2.9 mph4.7 kmh 30.11 in1019.6 mb 0.00 in0.0 mm 0.00 in0.0 mm 0.00 in0.0 mm
08:51 AM 57.9°F14.4°C 52.7°F11.5°C 83% 1.8 mph ESE2.9 kmh ESE 2.5 mph4.0 kmh 30.11 in1019.6 mb 0.00 in0.0 mm 0.00 in0.0 mm 0.00 in0.0 mm
08:49 AM 57.7°F14.3°C 52.7°F11.5°C 83% 1.1 mph SE1.8 kmh SE 1.6 mph2.6 kmh 30.11 in1019.6 mb 0.00 in0.0 mm 0.00 in0.0 mm 0.00 in0.0 mm
08:47 AM 57.4°F14.1°C 52.0°F11.1°C 82% 1.3 mph SSE2.1 kmh SSE 1.8 mph2.9 kmh 30.11 in1019.6 mb 0.00 in0.0 mm 0.00 in0.0 mm 0.00 in0.0 mm
08:45 AM 56.8°F13.8°C 51.4°F10.8°C 82% 1.3 mph SSE2.1 kmh SSE 2.0 mph3.2 kmh 30.11 in1019.6 mb 0.00 in0.0 mm 0.00 in0.0 mm 0.00 in0.0 mm
08:42 AM 56.5°F13.6°C 51.1°F10.6°C 82% 1.1 mph SE1.8 kmh SE 2.0 mph3.2 kmh 30.11 in1019.6 mb 0.00 in0.0 mm 0.00 in0.0 mm 0.00 in0.0 mm
08:40 AM 56.1°F13.4°C 50.7°F10.4°C 82% 1.1 mph SSE1.8 kmh SSE 1.6 mph2.6 kmh 30.10 in1019.3 mb 0.00 in0.0 mm 0.00 in0.0 mm 0.00 in0.0 mm
08:38 AM 55.9°F13.3°C 50.5°F10.3°C 82% 1.1 mph SSE1.8 kmh SSE 1.6 mph2.6 kmh 30.10 in1019.3 mb 0.00 in0.0 mm 0.00 in0.0 mm 0.00 in0.0 mm
08:36 AM 55.8°F13.2°C 50.4°F10.2°C 82% 1.6 mph SE2.6 kmh SE 1.6 mph2.6 kmh 30.10 in1019.3 mb 0.00 in0.0 mm 0.00 in0.0 mm 0.00 in0.0 mm
08:34 AM 55.6°F13.1°C 50.2°F10.1°C 82% 2.5 mph ESE4.0 kmh ESE 1.8 mph2.9 kmh 30.11 in1019.6 mb 0.00 in0.0 mm 0.00 in0.0 mm 0.00 in0.0 mm
08:32 AM 55.6°F13.1°C 50.2°F10.1°C 82% 4.0 mph SSE6.4 kmh SSE 4.9 mph7.9 kmh 30.10 in1019.3 mb 0.00 in0.0 mm 0.00 in0.0 mm 0.00 in0.0 mm
08:30 AM 55.6°F13.1°C 50.2°F10.1°C 82% 4.7 mph SE7.6 kmh SE 5.8 mph9.3 kmh 30.10 in1019.3 mb 0.00 in0.0 mm 0.00 in0.0 mm 0.00 in0.0 mm
08:27 AM 55.6°F13.1°C 50.2°F10.1°C 82% 4.3 mph SE6.9 kmh SE 5.4 mph8.7 kmh 30.10 in1019.3 mb 0.00 in0.0 mm 0.00 in0.0 mm 0.00 in0.0 mm
08:25 AM 55.4°F13.0°C 50.0°F10.0°C 82% 4.3 mph SE6.9 kmh SE 6.0 mph9.7 kmh 30.11 in1019.6 mb 0.00 in0.0 mm 0.00 in0.0 mm 0.00 in0.0 mm
08:23 AM 55.4°F13.0°C 50.0°F10.0°C 82% 4.0 mph SE6.4 kmh SE 4.9 mph7.9 kmh 30.11 in1019.6 mb 0.00 in0.0 mm 0.00 in0.0 mm 0.00 in0.0 mm
08:21 AM 55.2°F12.9°C 49.8°F9.9°C 82% 3.6 mph ESE5.8 kmh ESE 5.1 mph8.2 kmh 30.10 in1019.3 mb 0.00 in0.0 mm 0.00 in0.0 mm 0.00 in0.0 mm
08:19 AM 55.6°F13.1°C 50.5°F10.3°C 83% 2.5 mph SE4.0 kmh SE 4.5 mph7.2 kmh 30.10 in1019.3 mb 0.00 in0.0 mm 0.00 in0.0 mm 0.00 in0.0 mm
08:16 AM 55.6°F13.1°C 50.5°F10.3°C 83% 0.9 mph ESE1.4 kmh ESE 1.6 mph2.6 kmh 30.10 in1019.3 mb 0.00 in0.0 mm 0.00 in0.0 mm 0.00 in0.0 mm
08:14 AM 55.6°F13.1°C 50.5°F10.3°C 83% 0.4 mph SE0.6 kmh SE 1.3 mph2.1 kmh 30.10 in1019.3 mb 0.00 in0.0 mm 0.00 in0.0 mm 0.00 in0.0 mm
08:12 AM 55.6°F13.1°C 50.5°F10.3°C 83% 0.2 mph ESE0.3 kmh ESE -- 30.10 in1019.3 mb 0.00 in0.0 mm 0.00 in0.0 mm 0.00 in0.0 mm
08:10 AM 55.6°F13.1°C 50.5°F10.3°C 83% 0.2 mph ESE0.3 kmh ESE -- 30.10 in1019.3 mb 0.00 in0.0 mm 0.00 in0.0 mm 0.00 in0.0 mm
08:07 AM 55.4°F13.0°C 50.4°F10.2°C 83% 0.2 mph ESE0.3 kmh ESE -- 30.10 in1019.3 mb 0.00 in0.0 mm 0.00 in0.0 mm 0.00 in0.0 mm
08:05 AM 55.6°F13.1°C 50.5°F10.3°C 83% 0.2 mph ESE0.3 kmh ESE -- 30.10 in1019.3 mb 0.00 in0.0 mm 0.00 in0.0 mm 0.00 in0.0 mm
08:03 AM 55.6°F13.1°C 50.5°F10.3°C 83% 0.2 mph E0.3 kmh E -- 30.10 in1019.3 mb 0.00 in0.0 mm 0.00 in0.0 mm 0.00 in0.0 mm
08:01 AM 55.4°F13.0°C 50.4°F10.2°C 83% 0.4 mph ENE0.6 kmh ENE -- 30.10 in1019.3 mb 0.00 in0.0 mm 0.00 in0.0 mm 0.00 in0.0 mm
07:59 AM 55.2°F12.9°C 50.2°F10.1°C 83% 0.7 mph E1.1 kmh E -- 30.10 in1019.3 mb 0.00 in0.0 mm 0.00 in0.0 mm 0.00 in0.0 mm
07:56 AM 55.2°F12.9°C 50.2°F10.1°C 83% 1.1 mph E1.8 kmh E -- 30.10 in1019.3 mb 0.00 in0.0 mm 0.00 in0.0 mm 0.00 in0.0 mm
07:54 AM 55.2°F12.9°C 50.2°F10.1°C 83% 2.2 mph E3.5 kmh E 2.0 mph3.2 kmh 30.09 in1019.0 mb 0.00 in0.0 mm 0.00 in0.0 mm 0.00 in0.0 mm
07:52 AM 55.2°F12.9°C 50.2°F10.1°C 83% 4.0 mph SE6.4 kmh SE 4.3 mph6.9 kmh 30.10 in1019.3 mb 0.00 in0.0 mm 0.00 in0.0 mm 0.00 in0.0 mm
07:49 AM 55.2°F12.9°C 50.2°F10.1°C 83% 4.9 mph SE7.9 kmh SE 5.6 mph9.0 kmh 30.10 in1019.3 mb 0.00 in0.0 mm 0.00 in0.0 mm 0.00 in0.0 mm
07:47 AM 55.2°F12.9°C 50.2°F10.1°C 83% 5.4 mph SE8.7 kmh SE 6.3 mph10.1 kmh 30.10 in1019.3 mb 0.00 in0.0 mm 0.00 in0.0 mm 0.00 in0.0 mm
07:45 AM 55.2°F12.9°C 50.2°F10.1°C 83% 4.9 mph SE7.9 kmh SE 6.0 mph9.7 kmh 30.10 in1019.3 mb 0.00 in0.0 mm 0.00 in0.0 mm 0.00 in0.0 mm
07:43 AM 55.6°F13.1°C 50.5°F10.3°C 83% 4.5 mph ESE7.2 kmh ESE 5.4 mph8.7 kmh 30.09 in1019.0 mb 0.00 in0.0 mm 0.00 in0.0 mm 0.00 in0.0 mm
07:41 AM 55.6°F13.1°C 50.5°F10.3°C 83% 4.5 mph SE7.2 kmh SE 5.8 mph9.3 kmh 30.09 in1019.0 mb 0.00 in0.0 mm 0.00 in0.0 mm 0.00 in0.0 mm
07:39 AM 55.9°F13.3°C 50.9°F10.5°C 83% 3.8 mph ESE6.1 kmh ESE 5.8 mph9.3 kmh 30.09 in1019.0 mb 0.00 in0.0 mm 0.00 in0.0 mm 0.00 in0.0 mm
07:36 AM 55.9°F13.3°C 50.9°F10.5°C 83% 2.7 mph SE4.3 kmh SE 4.0 mph6.4 kmh 30.09 in1019.0 mb 0.00 in0.0 mm 0.00 in0.0 mm 0.00 in0.0 mm
07:34 AM 55.9°F13.3°C 50.9°F10.5°C 83% 2.0 mph ESE3.2 kmh ESE 4.0 mph6.4 kmh 30.09 in1019.0 mb 0.00 in0.0 mm 0.00 in0.0 mm 0.00 in0.0 mm
07:32 AM 55.9°F13.3°C 51.3°F10.7°C 84% 1.3 mph SE2.1 kmh SE 3.4 mph5.5 kmh 30.09 in1019.0 mb 0.00 in0.0 mm 0.00 in0.0 mm 0.00 in0.0 mm
07:30 AM 55.8°F13.2°C 51.1°F10.6°C 84% 1.3 mph ENE2.1 kmh ENE -- 30.09 in1019.0 mb 0.00 in0.0 mm 0.00 in0.0 mm 0.00 in0.0 mm
07:28 AM 55.2°F12.9°C 50.5°F10.3°C 84% 2.7 mph SSE4.3 kmh SSE 2.7 mph4.3 kmh 30.09 in1019.0 mb 0.00 in0.0 mm 0.00 in0.0 mm 0.00 in0.0 mm
07:25 AM 55.0°F12.8°C 50.4°F10.2°C 84% 4.0 mph SSE6.4 kmh SSE 4.3 mph6.9 kmh 30.09 in1019.0 mb 0.00 in0.0 mm 0.00 in0.0 mm 0.00 in0.0 mm
07:23 AM 54.5°F12.5°C 49.8°F9.9°C 84% 4.9 mph SE7.9 kmh SE 5.6 mph9.0 kmh 30.09 in1019.0 mb 0.00 in0.0 mm 0.00 in0.0 mm 0.00 in0.0 mm
07:21 AM 54.3°F12.4°C 49.3°F9.6°C 83% 4.9 mph ESE7.9 kmh ESE 5.8 mph9.3 kmh 30.09 in1019.0 mb 0.00 in0.0 mm 0.00 in0.0 mm 0.00 in0.0 mm
07:19 AM 54.3°F12.4°C 49.3°F9.6°C 83% 4.7 mph E7.6 kmh E 5.8 mph9.3 kmh 30.09 in1019.0 mb 0.00 in0.0 mm 0.00 in0.0 mm 0.00 in0.0 mm
07:17 AM 54.3°F12.4°C 49.3°F9.6°C 83% 4.9 mph ESE7.9 kmh ESE 6.0 mph9.7 kmh 30.08 in1018.6 mb 0.00 in0.0 mm 0.00 in0.0 mm 0.00 in0.0 mm
07:14 AM 54.3°F12.4°C 49.3°F9.6°C 83% 4.9 mph SE7.9 kmh SE 6.5 mph10.5 kmh 30.08 in1018.6 mb 0.00 in0.0 mm 0.00 in0.0 mm 0.00 in0.0 mm
07:12 AM 54.5°F12.5°C 49.5°F9.7°C 83% 4.3 mph ESE6.9 kmh ESE 6.7 mph10.8 kmh 30.09 in1019.0 mb 0.00 in0.0 mm 0.00 in0.0 mm 0.00 in0.0 mm
07:10 AM 54.7°F12.6°C 49.6°F9.8°C 83% 3.4 mph SE5.5 kmh SE 4.9 mph7.9 kmh 30.08 in1018.6 mb 0.00 in0.0 mm 0.00 in0.0 mm 0.00 in0.0 mm
07:08 AM 54.7°F12.6°C 49.6°F9.8°C 83% 2.9 mph SE4.7 kmh SE 4.5 mph7.2 kmh 30.08 in1018.6 mb 0.00 in0.0 mm 0.00 in0.0 mm 0.00 in0.0 mm
07:06 AM 54.7°F12.6°C 49.6°F9.8°C 83% 2.7 mph ESE4.3 kmh ESE 4.5 mph7.2 kmh 30.08 in1018.6 mb 0.00 in0.0 mm 0.00 in0.0 mm 0.00 in0.0 mm
07:04 AM 54.5°F12.5°C 49.5°F9.7°C 83% 2.0 mph ESE3.2 kmh ESE 4.5 mph7.2 kmh 30.08 in1018.6 mb 0.00 in0.0 mm 0.00 in0.0 mm 0.00 in0.0 mm
07:02 AM 54.5°F12.5°C 49.5°F9.7°C 83% 1.3 mph ESE2.1 kmh ESE 2.5 mph4.0 kmh 30.09 in1019.0 mb 0.00 in0.0 mm 0.00 in0.0 mm 0.00 in0.0 mm
07:00 AM 54.5°F12.5°C 49.5°F9.7°C 83% 0.7 mph ESE1.1 kmh ESE 2.0 mph3.2 kmh 30.08 in1018.6 mb 0.00 in0.0 mm 0.00 in0.0 mm 0.00 in0.0 mm
06:57 AM 54.5°F12.5°C 49.5°F9.7°C 83% 0.9 mph SSE1.4 kmh SSE 0.9 mph1.4 kmh 30.09 in1019.0 mb 0.00 in0.0 mm 0.00 in0.0 mm 0.00 in0.0 mm
06:55 AM 54.5°F12.5°C 49.5°F9.7°C 83% 1.8 mph 2.9 kmh 2.2 mph3.5 kmh 30.08 in1018.6 mb 0.00 in0.0 mm 0.00 in0.0 mm 0.00 in0.0 mm
06:53 AM 54.5°F12.5°C 49.5°F9.7°C 83% 2.7 mph SSE4.3 kmh SSE 2.9 mph4.7 kmh 30.09 in1019.0 mb 0.00 in0.0 mm 0.00 in0.0 mm 0.00 in0.0 mm
06:51 AM 54.3°F12.4°C 49.3°F9.6°C 83% 3.6 mph ESE5.8 kmh ESE 4.3 mph6.9 kmh 30.08 in1018.6 mb 0.00 in0.0 mm 0.00 in0.0 mm 0.00 in0.0 mm
06:48 AM 54.3°F12.4°C 49.3°F9.6°C 83% 3.6 mph ESE5.8 kmh ESE 4.5 mph7.2 kmh 30.08 in1018.6 mb 0.00 in0.0 mm 0.00 in0.0 mm 0.00 in0.0 mm
06:46 AM 54.3°F12.4°C 49.3°F9.6°C 83% 3.1 mph ESE5.0 kmh ESE 3.8 mph6.1 kmh 30.08 in1018.6 mb 0.00 in0.0 mm 0.00 in0.0 mm 0.00 in0.0 mm
06:44 AM 54.3°F12.4°C 49.3°F9.6°C 83% 3.4 mph SE5.5 kmh SE 3.8 mph6.1 kmh 30.08 in1018.6 mb 0.00 in0.0 mm 0.00 in0.0 mm 0.00 in0.0 mm
06:42 AM 54.3°F12.4°C 49.3°F9.6°C 83% 3.8 mph SE6.1 kmh SE 4.5 mph7.2 kmh 30.08 in1018.6 mb 0.00 in0.0 mm 0.00 in0.0 mm 0.00 in0.0 mm
06:39 AM 54.3°F12.4°C 49.3°F9.6°C 83% 4.3 mph ESE6.9 kmh ESE 5.1 mph8.2 kmh 30.08 in1018.6 mb 0.00 in0.0 mm 0.00 in0.0 mm 0.00 in0.0 mm
06:37 AM 54.3°F12.4°C 49.3°F9.6°C 83% 4.3 mph ESE6.9 kmh ESE 5.4 mph8.7 kmh 30.08 in1018.6 mb 0.00 in0.0 mm 0.00 in0.0 mm 0.00 in0.0 mm
06:35 AM 54.3°F12.4°C 48.9°F9.4°C 82% 4.3 mph SE6.9 kmh SE 5.4 mph8.7 kmh 30.08 in1018.6 mb 0.00 in0.0 mm 0.00 in0.0 mm 0.00 in0.0 mm
06:33 AM 54.1°F12.3°C 48.7°F9.3°C 82% 3.8 mph ESE6.1 kmh ESE 4.3 mph6.9 kmh 30.08 in1018.6 mb 0.00 in0.0 mm 0.00 in0.0 mm 0.00 in0.0 mm
06:31 AM 54.1°F12.3°C 48.7°F9.3°C 82% 4.5 mph SE7.2 kmh SE 4.7 mph7.6 kmh 30.08 in1018.6 mb 0.00 in0.0 mm 0.00 in0.0 mm 0.00 in0.0 mm
06:28 AM 54.1°F12.3°C 48.7°F9.3°C 82% 4.9 mph SE7.9 kmh SE 7.4 mph11.9 kmh 30.08 in1018.6 mb 0.00 in0.0 mm 0.00 in0.0 mm 0.00 in0.0 mm
06:26 AM 54.1°F12.3°C 48.7°F9.3°C 82% 4.5 mph ESE7.2 kmh ESE 5.8 mph9.3 kmh 30.08 in1018.6 mb 0.00 in0.0 mm 0.00 in0.0 mm 0.00 in0.0 mm
06:24 AM 54.1°F12.3°C 48.7°F9.3°C 82% 4.3 mph E6.9 kmh E 5.1 mph8.2 kmh 30.08 in1018.6 mb 0.00 in0.0 mm 0.00 in0.0 mm 0.00 in0.0 mm
06:22 AM 54.1°F12.3°C 48.7°F9.3°C 82% 4.3 mph SE6.9 kmh SE 5.6 mph9.0 kmh 30.08 in1018.6 mb 0.00 in0.0 mm 0.00 in0.0 mm 0.00 in0.0 mm
06:20 AM 54.1°F12.3°C 48.7°F9.3°C 82% 4.7 mph ESE7.6 kmh ESE 5.4 mph8.7 kmh 30.09 in1019.0 mb 0.00 in0.0 mm 0.00 in0.0 mm 0.00 in0.0 mm
06:18 AM 54.1°F12.3°C 48.7°F9.3°C 82% 4.7 mph ESE7.6 kmh ESE 6.0 mph9.7 kmh 30.08 in1018.6 mb 0.00 in0.0 mm 0.00 in0.0 mm 0.00 in0.0 mm
06:16 AM 54.1°F12.3°C 48.7°F9.3°C 82% 4.7 mph SE7.6 kmh SE 5.1 mph8.2 kmh 30.09 in1019.0 mb 0.00 in0.0 mm 0.00 in0.0 mm 0.00 in0.0 mm
06:13 AM 54.3°F12.4°C 48.6°F9.2°C 81% 4.9 mph SE7.9 kmh SE 5.6 mph9.0 kmh 30.08 in1018.6 mb 0.00 in0.0 mm 0.00 in0.0 mm 0.00 in0.0 mm
06:11 AM 54.3°F12.4°C 48.6°F9.2°C 81% 4.7 mph SE7.6 kmh SE 5.4 mph8.7 kmh 30.09 in1019.0 mb 0.00 in0.0 mm 0.00 in0.0 mm 0.00 in0.0 mm
06:09 AM 54.3°F12.4°C 48.6°F9.2°C 81% 4.7 mph SE7.6 kmh SE 6.0 mph9.7 kmh 30.09 in1019.0 mb 0.00 in0.0 mm 0.00 in0.0 mm 0.00 in0.0 mm
06:06 AM 54.3°F12.4°C 48.6°F9.2°C 81% 4.7 mph ESE7.6 kmh ESE 5.1 mph8.2 kmh 30.09 in1019.0 mb 0.00 in0.0 mm 0.00 in0.0 mm 0.00 in0.0 mm
06:04 AM 54.3°F12.4°C 48.6°F9.2°C 81% 4.9 mph ESE7.9 kmh ESE 6.0 mph9.7 kmh 30.09 in1019.0 mb 0.00 in0.0 mm 0.00 in0.0 mm 0.00 in0.0 mm
06:02 AM 54.3°F12.4°C 48.6°F9.2°C 81% 4.5 mph SE7.2 kmh SE 5.8 mph9.3 kmh 30.09 in1019.0 mb 0.00 in0.0 mm 0.00 in0.0 mm 0.00 in0.0 mm
06:00 AM 54.3°F12.4°C 48.6°F9.2°C 81% 4.5 mph ESE7.2 kmh ESE 5.6 mph9.0 kmh 30.09 in1019.0 mb 0.00 in0.0 mm 0.00 in0.0 mm 0.00 in0.0 mm
05:58 AM 54.3°F12.4°C 48.6°F9.2°C 81% 4.5 mph SE7.2 kmh SE 5.6 mph9.0 kmh 30.09 in1019.0 mb 0.00 in0.0 mm 0.00 in0.0 mm 0.00 in0.0 mm
05:55 AM 54.3°F12.4°C 48.6°F9.2°C 81% 3.8 mph ESE6.1 kmh ESE 4.5 mph7.2 kmh 30.09 in1019.0 mb 0.00 in0.0 mm 0.00 in0.0 mm 0.00 in0.0 mm
05:53 AM 54.1°F12.3°C 48.4°F9.1°C 81% 4.0 mph SE6.4 kmh SE 4.9 mph7.9 kmh 30.09 in1019.0 mb 0.00 in0.0 mm 0.00 in0.0 mm 0.00 in0.0 mm
05:51 AM 53.8°F12.1°C 48.0°F8.9°C 81% 4.0 mph SSE6.4 kmh SSE 4.0 mph6.4 kmh 30.09 in1019.0 mb 0.00 in0.0 mm 0.00 in0.0 mm 0.00 in0.0 mm
05:49 AM 53.4°F11.9°C 47.5°F8.6°C 80% 4.7 mph SE7.6 kmh SE 5.1 mph8.2 kmh 30.09 in1019.0 mb 0.00 in0.0 mm 0.00 in0.0 mm 0.00 in0.0 mm
05:47 AM 53.4°F11.9°C 47.5°F8.6°C 80% 5.4 mph SE8.7 kmh SE 6.5 mph10.5 kmh 30.09 in1019.0 mb 0.00 in0.0 mm 0.00 in0.0 mm 0.00 in0.0 mm
05:44 AM 53.4°F11.9°C 47.5°F8.6°C 80% 4.9 mph ESE7.9 kmh ESE 6.7 mph10.8 kmh 30.09 in1019.0 mb 0.00 in0.0 mm 0.00 in0.0 mm 0.00 in0.0 mm
05:42 AM 53.8°F12.1°C 47.8°F8.8°C 80% 4.9 mph ESE7.9 kmh ESE 6.3 mph10.1 kmh 30.09 in1019.0 mb 0.00 in0.0 mm 0.00 in0.0 mm 0.00 in0.0 mm
05:40 AM 53.8°F12.1°C 47.8°F8.8°C 80% 4.9 mph ESE7.9 kmh ESE 5.8 mph9.3 kmh 30.09 in1019.0 mb 0.00 in0.0 mm 0.00 in0.0 mm 0.00 in0.0 mm
05:38 AM 54.0°F12.2°C 48.0°F8.9°C 80% 5.1 mph ESE8.2 kmh ESE 5.8 mph9.3 kmh 30.09 in1019.0 mb 0.00 in0.0 mm 0.00 in0.0 mm 0.00 in0.0 mm
05:36 AM 54.1°F12.3°C 48.0°F8.9°C 80% 5.1 mph ESE8.2 kmh ESE 6.3 mph10.1 kmh 30.09 in1019.0 mb 0.00 in0.0 mm 0.00 in0.0 mm 0.00 in0.0 mm
05:33 AM 54.3°F12.4°C 48.2°F9.0°C 80% 4.9 mph ESE7.9 kmh ESE 6.5 mph10.5 kmh 30.09 in1019.0 mb 0.00 in0.0 mm 0.00 in0.0 mm 0.00 in0.0 mm
05:31 AM 54.1°F12.3°C 48.0°F8.9°C 80% 4.7 mph ESE7.6 kmh ESE 5.4 mph8.7 kmh 30.09 in1019.0 mb 0.00 in0.0 mm 0.00 in0.0 mm 0.00 in0.0 mm
05:29 AM 54.1°F12.3°C 48.0°F8.9°C 80% 5.1 mph SE8.2 kmh SE 6.0 mph9.7 kmh 30.09 in1019.0 mb 0.00 in0.0 mm 0.00 in0.0 mm 0.00 in0.0 mm
05:27 AM 54.1°F12.3°C 48.0°F8.9°C 80% 5.1 mph SE8.2 kmh SE 6.5 mph10.5 kmh 30.09 in1019.0 mb 0.00 in0.0 mm 0.00 in0.0 mm 0.00 in0.0 mm
05:24 AM 54.1°F12.3°C 48.0°F8.9°C 80% 5.1 mph SE8.2 kmh SE 7.2 mph11.6 kmh 30.09 in1019.0 mb 0.00 in0.0 mm 0.00 in0.0 mm 0.00 in0.0 mm
05:22 AM 54.0°F12.2°C 48.0°F8.9°C 80% 5.1 mph ESE8.2 kmh ESE 5.4 mph8.7 kmh 30.09 in1019.0 mb 0.00 in0.0 mm 0.00 in0.0 mm 0.00 in0.0 mm
05:20 AM 53.8°F12.1°C 47.8°F8.8°C 80% 5.4 mph ESE8.7 kmh ESE 6.9 mph11.1 kmh 30.09 in1019.0 mb 0.00 in0.0 mm 0.00 in0.0 mm 0.00 in0.0 mm
05:18 AM 53.8°F12.1°C 47.8°F8.8°C 80% 5.1 mph SSE8.2 kmh SSE 5.6 mph9.0 kmh 30.09 in1019.0 mb 0.00 in0.0 mm 0.00 in0.0 mm 0.00 in0.0 mm
05:16 AM 53.8°F12.1°C 47.8°F8.8°C 80% 5.6 mph SE9.0 kmh SE 6.9 mph11.1 kmh 30.09 in1019.0 mb 0.00 in0.0 mm 0.00 in0.0 mm 0.00 in0.0 mm
05:14 AM 53.8°F12.1°C 47.8°F8.8°C 80% 5.6 mph SE9.0 kmh SE 6.0 mph9.7 kmh 30.09 in1019.0 mb 0.00 in0.0 mm 0.00 in0.0 mm 0.00 in0.0 mm
05:12 AM 53.8°F12.1°C 47.5°F8.6°C 79% 5.8 mph ESE9.3 kmh ESE 6.5 mph10.5 kmh 30.09 in1019.0 mb 0.00 in0.0 mm 0.00 in0.0 mm 0.00 in0.0 mm
05:09 AM 54.0°F12.2°C 47.7°F8.7°C 79% 6.0 mph ESE9.7 kmh ESE 7.8 mph12.6 kmh 30.09 in1019.0 mb 0.00 in0.0 mm 0.00 in0.0 mm 0.00 in0.0 mm
05:07 AM 54.1°F12.3°C 47.8°F8.8°C 79% 5.6 mph ESE9.0 kmh ESE 7.4 mph11.9 kmh 30.09 in1019.0 mb 0.00 in0.0 mm 0.00 in0.0 mm 0.00 in0.0 mm
05:05 AM 54.3°F12.4°C 48.2°F9.0°C 80% 4.9 mph SE7.9 kmh SE 6.7 mph10.8 kmh 30.09 in1019.0 mb 0.00 in0.0 mm 0.00 in0.0 mm 0.00 in0.0 mm
05:03 AM 54.3°F12.4°C 48.2°F9.0°C 80% 4.5 mph SE7.2 kmh SE 6.3 mph10.1 kmh 30.09 in1019.0 mb 0.00 in0.0 mm 0.00 in0.0 mm 0.00 in0.0 mm
05:00 AM 54.3°F12.4°C 48.2°F9.0°C 80% 3.4 mph SE5.5 kmh SE 4.7 mph7.6 kmh 30.09 in1019.0 mb 0.00 in0.0 mm 0.00 in0.0 mm 0.00 in0.0 mm
04:58 AM 54.1°F12.3°C 48.0°F8.9°C 80% 2.7 mph SE4.3 kmh SE 3.6 mph5.8 kmh 30.09 in1019.0 mb 0.00 in0.0 mm 0.00 in0.0 mm 0.00 in0.0 mm
04:56 AM 54.1°F12.3°C 48.0°F8.9°C 80% 3.4 mph SSE5.5 kmh SSE 4.5 mph7.2 kmh 30.09 in1019.0 mb 0.00 in0.0 mm 0.00 in0.0 mm 0.00 in0.0 mm
04:54 AM 54.0°F12.2°C 48.0°F8.9°C 80% 3.6 mph SE5.8 kmh SE 4.7 mph7.6 kmh 30.09 in1019.0 mb 0.00 in0.0 mm 0.00 in0.0 mm 0.00 in0.0 mm
04:52 AM 54.0°F12.2°C 48.0°F8.9°C 80% 4.0 mph SE6.4 kmh SE 5.1 mph8.2 kmh 30.09 in1019.0 mb 0.00 in0.0 mm 0.00 in0.0 mm 0.00 in0.0 mm
04:50 AM 54.0°F12.2°C 48.0°F8.9°C 80% 4.7 mph SE7.6 kmh SE 6.5 mph10.5 kmh 30.09 in1019.0 mb 0.00 in0.0 mm 0.00 in0.0 mm 0.00 in0.0 mm
04:48 AM 53.8°F12.1°C 47.8°F8.8°C 80% 4.0 mph SE6.4 kmh SE 5.1 mph8.2 kmh 30.09 in1019.0 mb 0.00 in0.0 mm 0.00 in0.0 mm 0.00 in0.0 mm
04:45 AM 53.8°F12.1°C 47.8°F8.8°C 80% 3.6 mph SE5.8 kmh SE 4.5 mph7.2 kmh 30.09 in1019.0 mb 0.00 in0.0 mm 0.00 in0.0 mm 0.00 in0.0 mm
04:43 AM 53.8°F12.1°C 47.8°F8.8°C 80% 4.0 mph SE6.4 kmh SE 4.0 mph6.4 kmh 30.09 in1019.0 mb 0.00 in0.0 mm 0.00 in0.0 mm 0.00 in0.0 mm
04:41 AM 54.0°F12.2°C 48.0°F8.9°C 80% 4.0 mph SE6.4 kmh SE 5.6 mph9.0 kmh 30.09 in1019.0 mb 0.00 in0.0 mm 0.00 in0.0 mm 0.00 in0.0 mm
04:39 AM 54.0°F12.2°C 48.0°F8.9°C 80% 4.0 mph SE6.4 kmh SE 5.4 mph8.7 kmh 30.09 in1019.0 mb 0.00 in0.0 mm 0.00 in0.0 mm 0.00 in0.0 mm
04:37 AM 54.1°F12.3°C 47.8°F8.8°C 79% 3.8 mph SSE6.1 kmh SSE 4.7 mph7.6 kmh 30.09 in1019.0 mb 0.00 in0.0 mm 0.00 in0.0 mm 0.00 in0.0 mm
04:34 AM 54.1°F12.3°C 47.8°F8.8°C 79% 3.8 mph SE6.1 kmh SE 5.4 mph8.7 kmh 30.09 in1019.0 mb 0.00 in0.0 mm 0.00 in0.0 mm 0.00 in0.0 mm
04:32 AM 54.1°F12.3°C 47.8°F8.8°C 79% 3.4 mph SE5.5 kmh SE 3.6 mph5.8 kmh 30.09 in1019.0 mb 0.00 in0.0 mm 0.00 in0.0 mm 0.00 in0.0 mm
04:30 AM 54.1°F12.3°C 47.8°F8.8°C 79% 3.4 mph ESE5.5 kmh ESE 4.5 mph7.2 kmh 30.09 in1019.0 mb 0.00 in0.0 mm 0.00 in0.0 mm 0.00 in0.0 mm
04:28 AM 54.0°F12.2°C 47.7°F8.7°C 79% 3.6 mph ESE5.8 kmh ESE 4.5 mph7.2 kmh 30.09 in1019.0 mb 0.00 in0.0 mm 0.00 in0.0 mm 0.00 in0.0 mm
04:26 AM 54.0°F12.2°C 47.7°F8.7°C 79% 3.6 mph ESE5.8 kmh ESE 4.5 mph7.2 kmh 30.09 in1019.0 mb 0.00 in0.0 mm 0.00 in0.0 mm 0.00 in0.0 mm
04:24 AM 54.1°F12.3°C 47.8°F8.8°C 79% 4.0 mph SE6.4 kmh SE 5.4 mph8.7 kmh 30.09 in1019.0 mb 0.00 in0.0 mm 0.00 in0.0 mm 0.00 in0.0 mm
04:22 AM 54.3°F12.4°C 48.0°F8.9°C 79% 3.8 mph SE6.1 kmh SE 4.7 mph7.6 kmh 30.09 in1019.0 mb 0.00 in0.0 mm 0.00 in0.0 mm 0.00 in0.0 mm
04:20 AM 54.3°F12.4°C 48.0°F8.9°C 79% 4.0 mph SE6.4 kmh SE 4.7 mph7.6 kmh 30.09 in1019.0 mb 0.00 in0.0 mm 0.00 in0.0 mm 0.00 in0.0 mm
04:18 AM 54.3°F12.4°C 48.0°F8.9°C 79% 4.0 mph ESE6.4 kmh ESE 5.4 mph8.7 kmh 30.09 in1019.0 mb 0.00 in0.0 mm 0.00 in0.0 mm 0.00 in0.0 mm
04:15 AM 54.3°F12.4°C 48.0°F8.9°C 79% 3.8 mph ESE6.1 kmh ESE 6.9 mph11.1 kmh 30.09 in1019.0 mb 0.00 in0.0 mm 0.00 in0.0 mm 0.00 in0.0 mm
04:13 AM 54.3°F12.4°C 48.0°F8.9°C 79% 3.8 mph SE6.1 kmh SE 4.9 mph7.9 kmh 30.09 in1019.0 mb 0.00 in0.0 mm 0.00 in0.0 mm 0.00 in0.0 mm
04:11 AM 54.3°F12.4°C 48.0°F8.9°C 79% 3.8 mph SE6.1 kmh SE 4.9 mph7.9 kmh 30.09 in1019.0 mb 0.00 in0.0 mm 0.00 in0.0 mm 0.00 in0.0 mm
04:09 AM 54.5°F12.5°C 48.2°F9.0°C 79% 4.3 mph SE6.9 kmh SE 6.5 mph10.5 kmh 30.10 in1019.3 mb 0.00 in0.0 mm 0.00 in0.0 mm 0.00 in0.0 mm
04:07 AM 54.5°F12.5°C 48.2°F9.0°C 79% 3.4 mph SSE5.5 kmh SSE 4.7 mph7.6 kmh 30.10 in1019.3 mb 0.00 in0.0 mm 0.00 in0.0 mm 0.00 in0.0 mm
04:04 AM 54.5°F12.5°C 47.8°F8.8°C 78% 3.1 mph SE5.0 kmh SE 4.0 mph6.4 kmh 30.10 in1019.3 mb 0.00 in0.0 mm 0.00 in0.0 mm 0.00 in0.0 mm
04:02 AM 54.7°F12.6°C 48.0°F8.9°C 78% 3.1 mph SE5.0 kmh SE 4.3 mph6.9 kmh 30.09 in1019.0 mb 0.00 in0.0 mm 0.00 in0.0 mm 0.00 in0.0 mm
04:00 AM 54.7°F12.6°C 48.0°F8.9°C 78% 3.1 mph ESE5.0 kmh ESE 4.0 mph6.4 kmh 30.10 in1019.3 mb 0.00 in0.0 mm 0.00 in0.0 mm 0.00 in0.0 mm
03:57 AM 54.7°F12.6°C 48.0°F8.9°C 78% 3.1 mph SE5.0 kmh SE 4.0 mph6.4 kmh 30.09 in1019.0 mb 0.00 in0.0 mm 0.00 in0.0 mm 0.00 in0.0 mm
03:55 AM 54.7°F12.6°C 48.0°F8.9°C 78% 3.4 mph SE5.5 kmh SE 3.6 mph5.8 kmh 30.09 in1019.0 mb 0.00 in0.0 mm 0.00 in0.0 mm 0.00 in0.0 mm
03:53 AM 54.9°F12.7°C 48.2°F9.0°C 78% 3.6 mph ESE5.8 kmh ESE 4.7 mph7.6 kmh 30.10 in1019.3 mb 0.00 in0.0 mm 0.00 in0.0 mm 0.00 in0.0 mm
03:51 AM 54.7°F12.6°C 48.0°F8.9°C 78% 3.8 mph ESE6.1 kmh ESE 4.9 mph7.9 kmh 30.10 in1019.3 mb 0.00 in0.0 mm 0.00 in0.0 mm 0.00 in0.0 mm
03:48 AM 54.7°F12.6°C 48.0°F8.9°C 78% 3.8 mph ESE6.1 kmh ESE 4.7 mph7.6 kmh 30.10 in1019.3 mb 0.00 in0.0 mm 0.00 in0.0 mm 0.00 in0.0 mm
03:46 AM 54.7°F12.6°C 48.0°F8.9°C 78% 3.4 mph SE5.5 kmh SE 3.8 mph6.1 kmh 30.10 in1019.3 mb 0.00 in0.0 mm 0.00 in0.0 mm 0.00 in0.0 mm
03:44 AM 54.5°F12.5°C 47.8°F8.8°C 78% 3.6 mph ESE5.8 kmh ESE 3.8 mph6.1 kmh 30.10 in1019.3 mb 0.00 in0.0 mm 0.00 in0.0 mm 0.00 in0.0 mm
03:42 AM 54.5°F12.5°C 47.8°F8.8°C 78% 4.0 mph SE6.4 kmh SE 4.5 mph7.2 kmh 30.10 in1019.3 mb 0.00 in0.0 mm 0.00 in0.0 mm 0.00 in0.0 mm
03:39 AM 54.5°F12.5°C 47.8°F8.8°C 78% 4.3 mph SE6.9 kmh SE 5.1 mph8.2 kmh 30.10 in1019.3 mb 0.00 in0.0 mm 0.00 in0.0 mm 0.00 in0.0 mm
03:37 AM 54.3°F12.4°C 47.7°F8.7°C 78% 4.3 mph ESE6.9 kmh ESE 5.1 mph8.2 kmh 30.10 in1019.3 mb 0.00 in0.0 mm 0.00 in0.0 mm 0.00 in0.0 mm
03:35 AM 54.3°F12.4°C 47.3°F8.5°C 77% 4.5 mph ESE7.2 kmh ESE 4.7 mph7.6 kmh 30.09 in1019.0 mb 0.00 in0.0 mm 0.00 in0.0 mm 0.00 in0.0 mm
03:33 AM 54.3°F12.4°C 47.3°F8.5°C 77% 4.7 mph ESE7.6 kmh ESE 5.1 mph8.2 kmh 30.10 in1019.3 mb 0.00 in0.0 mm 0.00 in0.0 mm 0.00 in0.0 mm
03:31 AM 54.3°F12.4°C 47.3°F8.5°C 77% 4.5 mph SE7.2 kmh SE 5.1 mph8.2 kmh 30.10 in1019.3 mb 0.00 in0.0 mm 0.00 in0.0 mm 0.00 in0.0 mm
03:28 AM 54.5°F12.5°C 47.5°F8.6°C 77% 4.3 mph SE6.9 kmh SE 4.5 mph7.2 kmh 30.10 in1019.3 mb 0.00 in0.0 mm 0.00 in0.0 mm 0.00 in0.0 mm
03:26 AM 54.7°F12.6°C 47.7°F8.7°C 77% 4.3 mph ESE6.9 kmh ESE 5.1 mph8.2 kmh 30.10 in1019.3 mb 0.00 in0.0 mm 0.00 in0.0 mm 0.00 in0.0 mm
03:24 AM 54.9°F12.7°C 47.8°F8.8°C 77% 4.0 mph ESE6.4 kmh ESE 5.4 mph8.7 kmh 30.10 in1019.3 mb 0.00 in0.0 mm 0.00 in0.0 mm 0.00 in0.0 mm
03:22 AM 55.0°F12.8°C 47.7°F8.7°C 76% 3.8 mph ESE6.1 kmh ESE 4.5 mph7.2 kmh 30.10 in1019.3 mb 0.00 in0.0 mm 0.00 in0.0 mm 0.00 in0.0 mm
03:20 AM 55.0°F12.8°C 47.7°F8.7°C 76% 3.6 mph ESE5.8 kmh ESE 4.7 mph7.6 kmh 30.10 in1019.3 mb 0.00 in0.0 mm 0.00 in0.0 mm 0.00 in0.0 mm
03:18 AM 55.2°F12.9°C 47.8°F8.8°C 76% 3.1 mph SE5.0 kmh SE 3.8 mph6.1 kmh 30.10 in1019.3 mb 0.00 in0.0 mm 0.00 in0.0 mm 0.00 in0.0 mm
03:15 AM 55.2°F12.9°C 47.8°F8.8°C 76% 3.1 mph SE5.0 kmh SE 3.8 mph6.1 kmh 30.10 in1019.3 mb 0.00 in0.0 mm 0.00 in0.0 mm 0.00 in0.0 mm
03:13 AM 55.2°F12.9°C 47.8°F8.8°C 76% 2.9 mph ESE4.7 kmh ESE 3.1 mph5.0 kmh 30.10 in1019.3 mb 0.00 in0.0 mm 0.00 in0.0 mm 0.00 in0.0 mm
03:11 AM 55.2°F12.9°C 47.8°F8.8°C 76% 2.9 mph SE4.7 kmh SE 3.1 mph5.0 kmh 30.10 in1019.3 mb 0.00 in0.0 mm 0.00 in0.0 mm 0.00 in0.0 mm
03:09 AM 55.2°F12.9°C 47.5°F8.6°C 75% 2.9 mph ESE4.7 kmh ESE 4.0 mph6.4 kmh 30.10 in1019.3 mb 0.00 in0.0 mm 0.00 in0.0 mm 0.00 in0.0 mm
03:06 AM 55.4°F13.0°C 47.7°F8.7°C 75% 2.5 mph ESE4.0 kmh ESE 3.8 mph6.1 kmh 30.10 in1019.3 mb 0.00 in0.0 mm 0.00 in0.0 mm 0.00 in0.0 mm
03:04 AM 55.4°F13.0°C 47.7°F8.7°C 75% 2.0 mph SE3.2 kmh SE 2.5 mph4.0 kmh 30.10 in1019.3 mb 0.00 in0.0 mm 0.00 in0.0 mm 0.00 in0.0 mm
03:02 AM 55.4°F13.0°C 47.7°F8.7°C 75% 1.8 mph SE2.9 kmh SE 2.5 mph4.0 kmh 30.10 in1019.3 mb 0.00 in0.0 mm 0.00 in0.0 mm 0.00 in0.0 mm
03:00 AM 55.2°F12.9°C 47.5°F8.6°C 75% 1.6 mph SE2.6 kmh SE 2.5 mph4.0 kmh 30.10 in1019.3 mb 0.00 in0.0 mm 0.00 in0.0 mm 0.00 in0.0 mm
02:57 AM 55.2°F12.9°C 47.5°F8.6°C 75% 1.8 mph S2.9 kmh S 2.9 mph4.7 kmh 30.10 in1019.3 mb 0.00 in0.0 mm 0.00 in0.0 mm 0.00 in0.0 mm
02:55 AM 55.2°F12.9°C 47.5°F8.6°C 75% 2.0 mph SE3.2 kmh SE 3.1 mph5.0 kmh 30.10 in1019.3 mb 0.00 in0.0 mm 0.00 in0.0 mm 0.00 in0.0 mm
02:53 AM 55.2°F12.9°C 47.5°F8.6°C 75% 1.8 mph SE2.9 kmh SE 3.4 mph5.5 kmh 30.10 in1019.3 mb 0.00 in0.0 mm 0.00 in0.0 mm 0.00 in0.0 mm
02:51 AM 55.6°F13.1°C 47.8°F8.8°C 75% 2.5 mph ESE4.0 kmh ESE 3.4 mph5.5 kmh 30.10 in1019.3 mb 0.00 in0.0 mm 0.00 in0.0 mm 0.00 in0.0 mm
02:49 AM 55.9°F13.3°C 48.2°F9.0°C 75% 2.2 mph SE3.5 kmh SE 3.1 mph5.0 kmh 30.10 in1019.3 mb 0.00 in0.0 mm 0.00 in0.0 mm 0.00 in0.0 mm
02:46 AM 55.9°F13.3°C 48.2°F9.0°C 75% 2.5 mph SE4.0 kmh SE 3.6 mph5.8 kmh 30.10 in1019.3 mb 0.00 in0.0 mm 0.00 in0.0 mm 0.00 in0.0 mm
02:44 AM 56.1°F13.4°C 48.4°F9.1°C 75% 3.1 mph SE5.0 kmh SE 5.1 mph8.2 kmh 30.10 in1019.3 mb 0.00 in0.0 mm 0.00 in0.0 mm 0.00 in0.0 mm
02:42 AM 56.3°F13.5°C 48.6°F9.2°C 75% 2.0 mph SE3.2 kmh SE 3.1 mph5.0 kmh 30.10 in1019.3 mb 0.00 in0.0 mm 0.00 in0.0 mm 0.00 in0.0 mm
02:40 AM 56.5°F13.6°C 48.7°F9.3°C 75% 1.8 mph SE2.9 kmh SE 2.9 mph4.7 kmh 30.10 in1019.3 mb 0.00 in0.0 mm 0.00 in0.0 mm 0.00 in0.0 mm
02:37 AM 56.5°F13.6°C 48.7°F9.3°C 75% 1.1 mph SE1.8 kmh SE 2.7 mph4.3 kmh 30.10 in1019.3 mb 0.00 in0.0 mm 0.00 in0.0 mm 0.00 in0.0 mm
02:35 AM 56.5°F13.6°C 48.7°F9.3°C 75% 1.3 mph SE2.1 kmh SE 2.0 mph3.2 kmh 30.10 in1019.3 mb 0.00 in0.0 mm 0.00 in0.0 mm 0.00 in0.0 mm
02:33 AM 56.5°F13.6°C 48.7°F9.3°C 75% 1.8 mph SSE2.9 kmh SSE 2.7 mph4.3 kmh 30.10 in1019.3 mb 0.00 in0.0 mm 0.00 in0.0 mm 0.00 in0.0 mm
02:31 AM 56.5°F13.6°C 48.7°F9.3°C 75% 2.0 mph SE3.2 kmh SE 3.6 mph5.8 kmh 30.10 in1019.3 mb 0.00 in0.0 mm 0.00 in0.0 mm 0.00 in0.0 mm
02:29 AM 56.7°F13.7°C 48.7°F9.3°C 75% 1.8 mph SE2.9 kmh SE 4.0 mph6.4 kmh 30.11 in1019.6 mb 0.00 in0.0 mm 0.00 in0.0 mm 0.00 in0.0 mm
02:27 AM 56.7°F13.7°C 48.7°F9.3°C 75% 1.3 mph SE2.1 kmh SE 2.0 mph3.2 kmh 30.10 in1019.3 mb 0.00 in0.0 mm 0.00 in0.0 mm 0.00 in0.0 mm
02:25 AM 56.8°F13.8°C 48.9°F9.4°C 75% 1.1 mph SE1.8 kmh SE 2.5 mph4.0 kmh 30.11 in1019.6 mb 0.00 in0.0 mm 0.00 in0.0 mm 0.00 in0.0 mm
02:23 AM 56.8°F13.8°C 48.9°F9.4°C 75% 1.8 mph SE2.9 kmh SE 3.1 mph5.0 kmh 30.10 in1019.3 mb 0.00 in0.0 mm 0.00 in0.0 mm 0.00 in0.0 mm
02:21 AM 56.8°F13.8°C 49.3°F9.6°C 76% 1.3 mph SSE2.1 kmh SSE 2.5 mph4.0 kmh 30.11 in1019.6 mb 0.00 in0.0 mm 0.00 in0.0 mm 0.00 in0.0 mm
02:18 AM 56.8°F13.8°C 49.3°F9.6°C 76% 0.9 mph SSE1.4 kmh SSE 1.8 mph2.9 kmh 30.10 in1019.3 mb 0.00 in0.0 mm 0.00 in0.0 mm 0.00 in0.0 mm
02:16 AM 56.8°F13.8°C 49.3°F9.6°C 76% 1.1 mph SE1.8 kmh SE 1.8 mph2.9 kmh 30.11 in1019.6 mb 0.00 in0.0 mm 0.00 in0.0 mm 0.00 in0.0 mm
02:14 AM 56.5°F13.6°C 48.9°F9.4°C 76% 1.1 mph SE1.8 kmh SE 2.5 mph4.0 kmh 30.10 in1019.3 mb 0.00 in0.0 mm 0.00 in0.0 mm 0.00 in0.0 mm
02:11 AM 56.5°F13.6°C 48.9°F9.4°C 76% 1.1 mph ESE1.8 kmh ESE 2.2 mph3.5 kmh 30.11 in1019.6 mb 0.00 in0.0 mm 0.00 in0.0 mm 0.00 in0.0 mm
02:09 AM 56.3°F13.5°C 48.9°F9.4°C 76% 1.1 mph ESE1.8 kmh ESE 2.9 mph4.7 kmh 30.11 in1019.6 mb 0.00 in0.0 mm 0.00 in0.0 mm 0.00 in0.0 mm
02:07 AM 56.3°F13.5°C 48.9°F9.4°C 76% 0.9 mph SSE1.4 kmh SSE 1.6 mph2.6 kmh 30.10 in1019.3 mb 0.00 in0.0 mm 0.00 in0.0 mm 0.00 in0.0 mm
02:05 AM 56.1°F13.4°C 48.7°F9.3°C 76% 1.1 mph SSE1.8 kmh SSE 2.9 mph4.7 kmh 30.11 in1019.6 mb 0.00 in0.0 mm 0.00 in0.0 mm 0.00 in0.0 mm
02:03 AM 56.1°F13.4°C 48.7°F9.3°C 76% 2.0 mph ESE3.2 kmh ESE -- 30.11 in1019.6 mb 0.00 in0.0 mm 0.00 in0.0 mm 0.00 in0.0 mm
01:58 AM 55.9°F13.3°C 48.2°F9.0°C 75% 2.5 mph SE4.0 kmh SE 5.1 mph8.2 kmh 30.10 in1019.3 mb 0.00 in0.0 mm 0.00 in0.0 mm 0.00 in0.0 mm
01:56 AM 55.9°F13.3°C 48.2°F9.0°C 75% 3.4 mph SE5.5 kmh SE 5.1 mph8.2 kmh 30.10 in1019.3 mb 0.00 in0.0 mm 0.00 in0.0 mm 0.00 in0.0 mm
01:53 AM 55.8°F13.2°C 48.0°F8.9°C 75% 2.7 mph ESE4.3 kmh ESE 3.1 mph5.0 kmh 30.11 in1019.6 mb 0.00 in0.0 mm 0.00 in0.0 mm 0.00 in0.0 mm
01:51 AM 55.8°F13.2°C 48.0°F8.9°C 75% 2.9 mph SE4.7 kmh SE 4.0 mph6.4 kmh 30.11 in1019.6 mb 0.00 in0.0 mm 0.00 in0.0 mm 0.00 in0.0 mm
01:49 AM 55.8°F13.2°C 48.0°F8.9°C 75% 2.7 mph SE4.3 kmh SE 3.4 mph5.5 kmh 30.11 in1019.6 mb 0.00 in0.0 mm 0.00 in0.0 mm 0.00 in0.0 mm
01:47 AM 55.6°F13.1°C 47.8°F8.8°C 75% 2.7 mph SE4.3 kmh SE 3.4 mph5.5 kmh 30.11 in1019.6 mb 0.00 in0.0 mm 0.00 in0.0 mm 0.00 in0.0 mm
01:45 AM 55.8°F13.2°C 48.0°F8.9°C 75% 2.7 mph SE4.3 kmh SE 4.0 mph6.4 kmh 30.11 in1019.6 mb 0.00 in0.0 mm 0.00 in0.0 mm 0.00 in0.0 mm
01:43 AM 55.9°F13.3°C 48.2°F9.0°C 75% 2.2 mph SE3.5 kmh SE 2.7 mph4.3 kmh 30.11 in1019.6 mb 0.00 in0.0 mm 0.00 in0.0 mm 0.00 in0.0 mm
01:40 AM 55.9°F13.3°C 48.2°F9.0°C 75% 2.5 mph ESE4.0 kmh ESE 2.9 mph4.7 kmh 30.11 in1019.6 mb 0.00 in0.0 mm 0.00 in0.0 mm 0.00 in0.0 mm
01:38 AM 56.1°F13.4°C 48.4°F9.1°C 75% 2.2 mph SE3.5 kmh SE 2.9 mph4.7 kmh 30.11 in1019.6 mb 0.00 in0.0 mm 0.00 in0.0 mm 0.00 in0.0 mm
01:36 AM 56.3°F13.5°C 48.6°F9.2°C 75% 2.5 mph SE4.0 kmh SE 3.6 mph5.8 kmh 30.11 in1019.6 mb 0.00 in0.0 mm 0.00 in0.0 mm 0.00 in0.0 mm
01:34 AM 56.1°F13.4°C 48.4°F9.1°C 75% 2.2 mph SE3.5 kmh SE 3.1 mph5.0 kmh 30.11 in1019.6 mb 0.00 in0.0 mm 0.00 in0.0 mm 0.00 in0.0 mm
01:32 AM 56.1°F13.4°C 48.4°F9.1°C 75% 2.2 mph SE3.5 kmh SE 2.9 mph4.7 kmh 30.11 in1019.6 mb 0.00 in0.0 mm 0.00 in0.0 mm 0.00 in0.0 mm
01:29 AM 56.1°F13.4°C 48.4°F9.1°C 75% 2.5 mph ESE4.0 kmh ESE 3.6 mph5.8 kmh 30.11 in1019.6 mb 0.00 in0.0 mm 0.00 in0.0 mm 0.00 in0.0 mm
01:27 AM 56.1°F13.4°C 48.4°F9.1°C 75% 2.2 mph SE3.5 kmh SE 2.9 mph4.7 kmh 30.11 in1019.6 mb 0.00 in0.0 mm 0.00 in0.0 mm 0.00 in0.0 mm
01:25 AM 56.3°F13.5°C 48.6°F9.2°C 75% 2.5 mph SE4.0 kmh SE 3.8 mph6.1 kmh 30.11 in1019.6 mb 0.00 in0.0 mm 0.00 in0.0 mm 0.00 in0.0 mm
01:22 AM 56.5°F13.6°C 48.7°F9.3°C 75% 2.2 mph SE3.5 kmh SE 4.0 mph6.4 kmh 30.11 in1019.6 mb 0.00 in0.0 mm 0.00 in0.0 mm 0.00 in0.0 mm
01:20 AM 56.8°F13.8°C 48.9°F9.4°C 75% 1.1 mph SE1.8 kmh SE 1.8 mph2.9 kmh 30.11 in1019.6 mb 0.00 in0.0 mm 0.00 in0.0 mm 0.00 in0.0 mm
01:18 AM 56.8°F13.8°C 48.9°F9.4°C 75% 0.7 mph ESE1.1 kmh ESE 2.2 mph3.5 kmh 30.11 in1019.6 mb 0.00 in0.0 mm 0.00 in0.0 mm 0.00 in0.0 mm
01:16 AM 57.0°F13.9°C 49.1°F9.5°C 75% 0.4 mph ESE0.6 kmh ESE 0.9 mph1.4 kmh 30.11 in1019.6 mb 0.00 in0.0 mm 0.00 in0.0 mm 0.00 in0.0 mm
01:14 AM 57.0°F13.9°C 49.1°F9.5°C 75% 0.2 mph SE0.3 kmh SE 0.7 mph1.1 kmh 30.11 in1019.6 mb 0.00 in0.0 mm 0.00 in0.0 mm 0.00 in0.0 mm
01:11 AM 57.0°F13.9°C 49.1°F9.5°C 75% 0.2 mph NE0.3 kmh NE -- 30.11 in1019.6 mb 0.00 in0.0 mm 0.00 in0.0 mm 0.00 in0.0 mm
01:09 AM 57.0°F13.9°C 49.5°F9.7°C 76% 0.2 mph NNE0.3 kmh NNE -- 30.12 in1020.0 mb 0.00 in0.0 mm 0.00 in0.0 mm 0.00 in0.0 mm
01:07 AM 56.8°F13.8°C 49.3°F9.6°C 76% 0.4 mph SE0.6 kmh SE -- 30.11 in1019.6 mb 0.00 in0.0 mm 0.00 in0.0 mm 0.00 in0.0 mm
01:05 AM 56.8°F13.8°C 49.3°F9.6°C 76% 0.9 mph SE1.4 kmh SE 1.3 mph2.1 kmh 30.11 in1019.6 mb 0.00 in0.0 mm 0.00 in0.0 mm 0.00 in0.0 mm
01:03 AM 56.8°F13.8°C 49.3°F9.6°C 76% 1.3 mph SE2.1 kmh SE 1.6 mph2.6 kmh 30.12 in1020.0 mb 0.00 in0.0 mm 0.00 in0.0 mm 0.00 in0.0 mm
01:00 AM 56.7°F13.7°C 49.1°F9.5°C 76% 2.0 mph SE3.2 kmh SE 2.2 mph3.5 kmh 30.11 in1019.6 mb 0.00 in0.0 mm 0.00 in0.0 mm 0.00 in0.0 mm
12:58 AM 56.7°F13.7°C 49.1°F9.5°C 76% 2.5 mph SE4.0 kmh SE 2.7 mph4.3 kmh 30.12 in1020.0 mb 0.00 in0.0 mm 0.00 in0.0 mm 0.00 in0.0 mm
12:56 AM 56.5°F13.6°C 48.9°F9.4°C 76% 2.7 mph SE4.3 kmh SE 3.8 mph6.1 kmh 30.12 in1020.0 mb 0.00 in0.0 mm 0.00 in0.0 mm 0.00 in0.0 mm
12:54 AM 56.3°F13.5°C 48.9°F9.4°C 76% 2.7 mph SE4.3 kmh SE 2.7 mph4.3 kmh 30.11 in1019.6 mb 0.00 in0.0 mm 0.00 in0.0 mm 0.00 in0.0 mm
12:52 AM 56.1°F13.4°C 48.7°F9.3°C 76% 3.1 mph SE5.0 kmh SE 3.8 mph6.1 kmh 30.12 in1020.0 mb 0.00 in0.0 mm 0.00 in0.0 mm 0.00 in0.0 mm
12:49 AM 56.1°F13.4°C 48.9°F9.4°C 77% 3.1 mph SE5.0 kmh SE 4.0 mph6.4 kmh 30.12 in1020.0 mb 0.00 in0.0 mm 0.00 in0.0 mm 0.00 in0.0 mm
12:47 AM 55.9°F13.3°C 48.9°F9.4°C 77% 3.1 mph SE5.0 kmh SE 3.6 mph5.8 kmh 30.11 in1019.6 mb 0.00 in0.0 mm 0.00 in0.0 mm 0.00 in0.0 mm
12:45 AM 55.9°F13.3°C 48.9°F9.4°C 77% 3.4 mph ESE5.5 kmh ESE 3.8 mph6.1 kmh 30.12 in1020.0 mb 0.00 in0.0 mm 0.00 in0.0 mm 0.00 in0.0 mm
12:43 AM 55.6°F13.1°C 48.6°F9.2°C 77% 3.4 mph SE5.5 kmh SE 4.0 mph6.4 kmh 30.12 in1020.0 mb 0.00 in0.0 mm 0.00 in0.0 mm 0.00 in0.0 mm
12:40 AM 55.4°F13.0°C 48.4°F9.1°C 77% 3.1 mph SE5.0 kmh SE 4.3 mph6.9 kmh 30.12 in1020.0 mb 0.00 in0.0 mm 0.00 in0.0 mm 0.00 in0.0 mm
12:38 AM 55.2°F12.9°C 48.2°F9.0°C 77% 3.1 mph SE5.0 kmh SE 3.6 mph5.8 kmh 30.11 in1019.6 mb 0.00 in0.0 mm 0.00 in0.0 mm 0.00 in0.0 mm
12:36 AM 55.0°F12.8°C 48.0°F8.9°C 77% 3.6 mph ESE5.8 kmh ESE 4.3 mph6.9 kmh 30.11 in1019.6 mb 0.00 in0.0 mm 0.00 in0.0 mm 0.00 in0.0 mm
12:33 AM 55.0°F12.8°C 47.7°F8.7°C 76% 3.1 mph ESE5.0 kmh ESE 4.0 mph6.4 kmh 30.11 in1019.6 mb 0.00 in0.0 mm 0.00 in0.0 mm 0.00 in0.0 mm
12:31 AM 55.2°F12.9°C 47.8°F8.8°C 76% 2.9 mph SE4.7 kmh SE 3.6 mph5.8 kmh 30.11 in1019.6 mb 0.00 in0.0 mm 0.00 in0.0 mm 0.00 in0.0 mm
12:29 AM 55.4°F13.0°C 48.0°F8.9°C 76% 3.4 mph ESE5.5 kmh ESE 4.3 mph6.9 kmh 30.11 in1019.6 mb 0.00 in0.0 mm 0.00 in0.0 mm 0.00 in0.0 mm
12:27 AM 55.8°F13.2°C 48.4°F9.1°C 76% 3.1 mph ESE5.0 kmh ESE 4.9 mph7.9 kmh 30.11 in1019.6 mb 0.00 in0.0 mm 0.00 in0.0 mm 0.00 in0.0 mm
12:25 AM 56.1°F13.4°C 48.7°F9.3°C 76% 3.1 mph ESE5.0 kmh ESE 4.7 mph7.6 kmh 30.12 in1020.0 mb 0.00 in0.0 mm 0.00 in0.0 mm 0.00 in0.0 mm
12:23 AM 56.5°F13.6°C 48.9°F9.4°C 76% 2.7 mph ESE4.3 kmh ESE 4.3 mph6.9 kmh 30.11 in1019.6 mb 0.00 in0.0 mm 0.00 in0.0 mm 0.00 in0.0 mm
12:21 AM 56.5°F13.6°C 48.9°F9.4°C 76% 2.2 mph SE3.5 kmh SE 2.7 mph4.3 kmh 30.11 in1019.6 mb 0.00 in0.0 mm 0.00 in0.0 mm 0.00 in0.0 mm
12:18 AM 56.5°F13.6°C 48.9°F9.4°C 76% 2.5 mph SE4.0 kmh SE 2.7 mph4.3 kmh 30.11 in1019.6 mb 0.00 in0.0 mm 0.00 in0.0 mm 0.00 in0.0 mm
12:16 AM 56.5°F13.6°C 48.9°F9.4°C 76% 2.7 mph S4.3 kmh S 2.5 mph4.0 kmh 30.11 in1019.6 mb 0.00 in0.0 mm 0.00 in0.0 mm 0.00 in0.0 mm
12:14 AM 56.5°F13.6°C 48.9°F9.4°C 76% 3.6 mph SSE5.8 kmh SSE 4.5 mph7.2 kmh 30.11 in1019.6 mb 0.00 in0.0 mm 0.00 in0.0 mm 0.00 in0.0 mm
12:11 AM 56.5°F13.6°C 48.9°F9.4°C 76% 3.4 mph SE5.5 kmh SE 4.5 mph7.2 kmh 30.11 in1019.6 mb 0.00 in0.0 mm 0.00 in0.0 mm 0.00 in0.0 mm
12:09 AM 56.5°F13.6°C 48.9°F9.4°C 76% 2.9 mph SE4.7 kmh SE 5.1 mph8.2 kmh 30.12 in1020.0 mb 0.00 in0.0 mm 0.00 in0.0 mm 0.00 in0.0 mm
12:07 AM 56.5°F13.6°C 48.9°F9.4°C 76% 2.9 mph SSE4.7 kmh SSE 4.7 mph7.6 kmh 30.11 in1019.6 mb 0.00 in0.0 mm 0.00 in0.0 mm 0.00 in0.0 mm
12:05 AM 56.5°F13.6°C 48.9°F9.4°C 76% 2.7 mph S4.3 kmh S 2.9 mph4.7 kmh 30.11 in1019.6 mb 0.00 in0.0 mm 0.00 in0.0 mm 0.00 in0.0 mm
12:02 AM 56.7°F13.7°C 49.1°F9.5°C 76% 2.7 mph ESE4.3 kmh ESE 5.1 mph8.2 kmh 30.11 in1019.6 mb 0.00 in0.0 mm 0.00 in0.0 mm 0.00 in0.0 mm
12:00 AM 56.8°F13.8°C 49.3°F9.6°C 76% 2.5 mph SSE4.0 kmh SSE 3.6 mph5.8 kmh 30.12 in1020.0 mb 0.00 in0.0 mm 0.00 in0.0 mm 0.00 in0.0 mm